Darstellungsparameter: Aktuell verwendete Einstellungen:
Skalierung der Graphiken ... ?
xyx+y,   Skalierungsfaktor:      Skalierung: Modus: x, Faktor: 1
Darstellungszeitraum ... ?
Vom - - bis: - -   Zeitraum: 02.02.2009 - 15.02.2009
Min/Max/Avg-Anzeige ... ?
Zeige MMA aktuell
Zeige MMA Monat
Zeige MMA alles
Zeige --A aktuell
Zeige --A Monat
Zeige --A alles
Keine MMA-Anzeige
MMA:
Minimum Maximum Average (ber die Originaldaten)
MMA-Basis: 02.02.2009 - 15.02.2009
Quicknavigation für Darstellung... ?
Tage:      1T, 2T, 3T, 5T -1T -2T -3T -5T +1T +2T +3T +5T
Wochen: 1W, 2W, 3W -1W -2W -3W +1W +2W +3W
Monate: 1M, 3M, 6M -1M -3M -6M +1M +3M +6M
Jahre:    1J, 3J, 5J, 10J -1J -3J -5J -10J +1J +3J +5J +10J
Nutze für die Darstellung ... ?
Originaldaten oder Mittelwerte auf ...
Stundenbasis Tagesbasis Wochenbasis
Monatsbasis Jahresbasis      Datenbasis: Original-Daten
Darstellen als:
Statistik (Auto) Statistik J:M      Darstellung:
Zur Graphik,    zurück zur Übersicht aller Sensoren.
 
Tabellarische Datenbersicht: ?
 
Sensor: Nr:Datum:Temp:Feuchte:Taupunkt:
Aussen-T/F 1 02-02-2009 00:01:13 -1 C 54 % -9.12 C
2 02-02-2009 00:13:13 -1 C 54 % -9.12 C
3 02-02-2009 00:25:13 -1.2 C 54 % -9.31 C
4 02-02-2009 00:37:13 -1.4 C 55 % -9.26 C
5 02-02-2009 00:49:13 -1.7 C 56 % -9.31 C
6 02-02-2009 01:01:13 -1.8 C 56 % -9.41 C
7 02-02-2009 01:13:13 -1.8 C 57 % -9.18 C
8 02-02-2009 01:25:13 -2.1 C 58 % -9.24 C
9 02-02-2009 01:37:13 -2.1 C 59 % -9.02 C
10 02-02-2009 01:49:13 -2.3 C 59 % -9.21 C
11 02-02-2009 02:01:14 -2.3 C 60 % -9 C
12 02-02-2009 02:13:14 -2.1 C 61 % -8.6 C
13 02-02-2009 02:25:14 -1.9 C 60 % -8.62 C
14 02-02-2009 02:37:14 -1.7 C 60 % -8.43 C
15 02-02-2009 02:49:14 -1.5 C 59 % -8.46 C
16 02-02-2009 03:01:14 -1.3 C 58 % -8.49 C
17 02-02-2009 03:13:14 -1.3 C 57 % -8.71 C
18 02-02-2009 03:25:14 -1.3 C 57 % -8.71 C
19 02-02-2009 03:37:14 -1.2 C 57 % -8.62 C
20 02-02-2009 03:49:14 -1.1 C 57 % -8.52 C
21 02-02-2009 04:01:14 -1 C 57 % -8.43 C
22 02-02-2009 04:13:14 -0.8 C 56 % -8.47 C
23 02-02-2009 04:25:14 -0.7 C 56 % -8.38 C
24 02-02-2009 04:37:14 -0.7 C 55 % -8.61 C
25 02-02-2009 04:49:14 -0.8 C 55 % -8.7 C
Sensor: Nr:Datum:Temp:Feuchte:Taupunkt:
Aussen-T/F 26 02-02-2009 05:01:14 -0.8 C 56 % -8.47 C
27 02-02-2009 05:13:14 -0.8 C 56 % -8.47 C
28 02-02-2009 05:25:14 -0.8 C 56 % -8.47 C
29 02-02-2009 05:37:14 -0.7 C 56 % -8.38 C
30 02-02-2009 05:49:15 -0.8 C 57 % -8.24 C
31 02-02-2009 06:01:15 -0.7 C 56 % -8.38 C
32 02-02-2009 06:13:15 -0.8 C 57 % -8.24 C
33 02-02-2009 06:25:15 -0.8 C 58 % -8.02 C
34 02-02-2009 06:37:15 -0.8 C 58 % -8.02 C
35 02-02-2009 06:49:12 -0.8 C 58 % -8.02 C
36 02-02-2009 07:01:12 -0.9 C 58 % -8.11 C
37 02-02-2009 07:13:12 -0.9 C 59 % -7.89 C
38 02-02-2009 07:25:12 -0.8 C 60 % -7.58 C
39 02-02-2009 07:37:12 -0.6 C 60 % -7.39 C
40 02-02-2009 07:49:11 -0.5 C 61 % -7.08 C
41 02-02-2009 08:01:11 -0.5 C 61 % -7.08 C
42 02-02-2009 08:13:12 -0.4 C 60 % -7.2 C
43 02-02-2009 08:25:11 -0.3 C 59 % -7.33 C
44 02-02-2009 08:37:11 -0.6 C 60 % -7.39 C
45 02-02-2009 08:49:10 -0.8 C 61 % -7.37 C
46 02-02-2009 09:01:11 -0.7 C 60 % -7.49 C
47 02-02-2009 09:13:11 -0.5 C 60 % -7.3 C
48 02-02-2009 09:25:11 -0.2 C 57 % -7.68 C
49 02-02-2009 09:37:10 -0.2 C 58 % -7.45 C
50 02-02-2009 09:49:11 -0.1 C 58 % -7.36 C
Sensor: Nr:Datum:Temp:Feuchte:Taupunkt:
Aussen-T/F 51 02-02-2009 10:01:10 0.1 C 57 % -7.39 C
52 02-02-2009 10:13:10 0.3 C 56 % -7.43 C
53 02-02-2009 10:25:10 0.4 C 55 % -7.57 C
54 02-02-2009 10:37:09 0.9 C 53 % -7.58 C
55 02-02-2009 10:49:10 1.2 C 52 % -7.54 C
56 02-02-2009 11:01:10 1.5 C 50 % -7.77 C
57 02-02-2009 11:13:10 1.8 C 49 % -7.75 C
58 02-02-2009 11:25:09 2.1 C 47 % -8.01 C
59 02-02-2009 11:37:10 2.5 C 46 % -7.92 C
60 02-02-2009 11:49:09 2.8 C 46 % -7.65 C
61 02-02-2009 12:01:09 3.3 C 45 % -7.47 C
62 02-02-2009 12:13:09 4 C 42 % -7.73 C
63 02-02-2009 12:25:09 4.2 C 40 % -8.17 C
64 02-02-2009 12:37:09 4.4 C 38 % -8.65 C
65 02-02-2009 12:49:08 4.6 C 38 % -8.47 C
66 02-02-2009 13:01:09 4.6 C 37 % -8.81 C
67 02-02-2009 13:13:09 4.7 C 38 % -8.38 C
68 02-02-2009 13:25:08 4.8 C 38 % -8.29 C
69 02-02-2009 13:37:08 4.9 C 37 % -8.54 C
70 02-02-2009 13:49:08 5 C 36 % -8.8 C
71 02-02-2009 14:01:08 5.3 C 36 % -8.54 C
72 02-02-2009 14:13:08 5.3 C 36 % -8.54 C
73 02-02-2009 14:25:08 5.4 C 36 % -8.45 C
74 02-02-2009 14:37:07 5.1 C 37 % -8.36 C
75 02-02-2009 14:49:08 5.1 C 39 % -7.69 C
Sensor: Nr:Datum:Temp:Feuchte:Taupunkt:
Aussen-T/F 76 02-02-2009 15:01:07 5.2 C 38 % -7.93 C
77 02-02-2009 15:13:07 5.1 C 39 % -7.69 C
78 02-02-2009 15:25:07 5.1 C 39 % -7.69 C
79 02-02-2009 15:37:07 5.1 C 39 % -7.69 C
80 02-02-2009 15:49:07 5 C 40 % -7.45 C
81 02-02-2009 16:01:06 4.9 C 40 % -7.54 C
82 02-02-2009 16:13:06 4.6 C 42 % -7.18 C
83 02-02-2009 16:25:07 4.3 C 43 % -7.15 C
84 02-02-2009 16:37:07 3.9 C 46 % -6.64 C
85 02-02-2009 16:49:06 3.7 C 47 % -6.55 C
86 02-02-2009 17:01:06 3.5 C 48 % -6.46 C
87 02-02-2009 17:13:06 3.3 C 49 % -6.37 C
88 02-02-2009 17:25:06 3.1 C 50 % -6.29 C
89 02-02-2009 17:37:06 3.1 C 50 % -6.29 C
90 02-02-2009 17:49:06 3 C 51 % -6.13 C
91 02-02-2009 18:01:05 2.6 C 53 % -6 C
92 02-02-2009 18:13:05 2.7 C 53 % -5.9 C
93 02-02-2009 18:25:06 2.6 C 53 % -6 C
94 02-02-2009 18:37:06 2.2 C 55 % -5.89 C
95 02-02-2009 18:49:06 2.1 C 56 % -5.74 C
96 02-02-2009 19:01:06 1.8 C 58 % -5.57 C
97 02-02-2009 19:13:06 1.5 C 59 % -5.62 C
98 02-02-2009 19:25:05 1.3 C 61 % -5.37 C
99 02-02-2009 19:37:05 1.1 C 62 % -5.35 C
100 02-02-2009 19:49:04 1.3 C 62 % -5.16 C
Sensor: Nr:Datum:Temp:Feuchte:Taupunkt:
Aussen-T/F 101 02-02-2009 20:01:05 1.2 C 61 % -5.47 C
102 02-02-2009 20:13:05 1 C 63 % -5.23 C
103 02-02-2009 20:25:04 1.3 C 63 % -4.95 C
104 02-02-2009 20:37:04 1.2 C 62 % -5.26 C
105 02-02-2009 20:49:05 1.4 C 62 % -5.07 C
106 02-02-2009 21:01:03 1.6 C 62 % -4.88 C
107 02-02-2009 21:13:03 1.3 C 62 % -5.16 C
108 02-02-2009 21:26:05 1.5 C 62 % -4.97 C
109 02-02-2009 21:38:05 1.4 C 62 % -5.07 C
110 02-02-2009 21:50:06 1.2 C 62 % -5.26 C
111 02-02-2009 22:02:06 1.1 C 64 % -4.93 C
112 02-02-2009 22:14:06 0.8 C 65 % -5.01 C
113 02-02-2009 22:26:06 0.6 C 68 % -4.61 C
114 02-02-2009 22:38:06 0.4 C 69 % -4.61 C
115 02-02-2009 22:50:06 0.3 C 70 % -4.51 C
116 02-02-2009 23:02:06 0.1 C 70 % -4.71 C
117 02-02-2009 23:14:06 0 C 71 % -4.61 C
118 02-02-2009 23:26:06 -0.1 C 72 % -4.53 C
119 02-02-2009 23:38:06 -0.3 C 72 % -4.72 C
120 02-02-2009 23:50:06 -0.3 C 73 % -4.54 C
121 03-02-2009 00:02:06 -0.4 C 74 % -4.46 C
122 03-02-2009 00:14:06 -0.5 C 74 % -4.55 C
123 03-02-2009 00:26:06 -0.7 C 74 % -4.75 C
124 03-02-2009 00:38:06 -0.9 C 75 % -4.76 C
125 03-02-2009 00:50:06 -1.1 C 75 % -4.96 C
Sensor: Nr:Datum:Temp:Feuchte:Taupunkt:
Aussen-T/F 126 03-02-2009 01:02:06 -1.2 C 77 % -4.71 C
127 03-02-2009 01:14:06 -1.3 C 77 % -4.8 C
128 03-02-2009 01:26:06 -1.3 C 78 % -4.63 C
129 03-02-2009 01:38:06 -1.4 C 78 % -4.73 C
130 03-02-2009 01:50:07 -1.4 C 79 % -4.56 C
131 03-02-2009 02:02:07 -1.4 C 79 % -4.56 C
132 03-02-2009 02:14:07 -1.4 C 80 % -4.4 C
133 03-02-2009 02:26:07 -1.4 C 81 % -4.23 C
134 03-02-2009 02:38:07 -1.6 C 81 % -4.43 C
135 03-02-2009 02:50:07 -1.7 C 81 % -4.52 C
136 03-02-2009 03:02:07 -1.7 C 81 % -4.52 C
137 03-02-2009 03:14:07 -1.9 C 81 % -4.72 C
138 03-02-2009 03:26:07 -2 C 81 % -4.82 C
139 03-02-2009 03:38:07 -1.9 C 81 % -4.72 C
140 03-02-2009 03:50:07 -2 C 82 % -4.65 C
141 03-02-2009 04:02:07 -2.1 C 82 % -4.75 C
142 03-02-2009 04:14:07 -2.3 C 82 % -4.95 C
143 03-02-2009 04:26:07 -2.3 C 83 % -4.79 C
144 03-02-2009 04:38:07 -2.3 C 83 % -4.79 C
145 03-02-2009 04:50:07 -2.5 C 83 % -4.98 C
146 03-02-2009 05:02:07 -2.3 C 83 % -4.79 C
147 03-02-2009 05:14:07 -2.3 C 84 % -4.63 C
148 03-02-2009 05:26:07 -2.4 C 84 % -4.73 C
149 03-02-2009 05:38:08 -2.4 C 84 % -4.73 C
150 03-02-2009 05:50:08 -2.6 C 84 % -4.92 C
Sensor: Nr:Datum:Temp:Feuchte:Taupunkt:
Aussen-T/F 151 03-02-2009 06:02:08 -2.6 C 84 % -4.92 C
152 03-02-2009 06:14:08 -2.6 C 84 % -4.92 C
153 03-02-2009 06:26:08 -2.8 C 84 % -5.12 C
154 03-02-2009 06:38:08 -2.8 C 84 % -5.12 C
155 03-02-2009 06:50:08 -2.9 C 84 % -5.22 C
156 03-02-2009 07:02:04 -3 C 84 % -5.32 C
157 03-02-2009 07:14:05 -3 C 84 % -5.32 C
158 03-02-2009 07:26:05 -3 C 84 % -5.32 C
159 03-02-2009 07:38:04 -3 C 84 % -5.32 C
160 03-02-2009 07:50:04 -3.1 C 84 % -5.41 C
161 03-02-2009 08:02:04 -3.1 C 84 % -5.41 C
162 03-02-2009 08:14:04 -3.1 C 84 % -5.41 C
163 03-02-2009 08:26:04 -3.1 C 84 % -5.41 C
164 03-02-2009 08:38:03 -2.8 C 84 % -5.12 C
165 03-02-2009 08:50:04 -2.7 C 84 % -5.02 C
166 03-02-2009 09:02:04 -2.7 C 84 % -5.02 C
167 03-02-2009 09:14:03 -2.7 C 84 % -5.02 C
168 03-02-2009 09:26:03 -2.5 C 84 % -4.83 C
169 03-02-2009 09:38:03 -2.3 C 84 % -4.63 C
170 03-02-2009 09:50:03 -2.1 C 84 % -4.43 C
171 03-02-2009 10:02:03 -1.9 C 84 % -4.24 C
172 03-02-2009 10:14:02 -1.8 C 84 % -4.14 C
173 03-02-2009 10:26:02 -1.6 C 84 % -3.94 C
174 03-02-2009 10:38:03 -1.3 C 84 % -3.65 C
175 03-02-2009 10:50:02 -0.9 C 84 % -3.26 C
Sensor: Nr:Datum:Temp:Feuchte:Taupunkt:
Aussen-T/F 176 03-02-2009 11:02:02 -0.2 C 85 % -2.41 C
177 03-02-2009 11:14:03 0.3 C 84 % -2.08 C
178 03-02-2009 11:26:03 0.6 C 84 % -1.78 C
179 03-02-2009 11:38:02 1 C 81 % -1.88 C
180 03-02-2009 11:50:02 1.2 C 80 % -1.86 C
181 03-02-2009 12:02:01 1.4 C 79 % -1.83 C
182 03-02-2009 12:14:02 2 C 77 % -1.6 C
183 03-02-2009 12:26:02 2.5 C 75 % -1.47 C
184 03-02-2009 12:38:01 3 C 71 % -1.73 C
185 03-02-2009 12:50:01 3.2 C 68 % -2.12 C
186 03-02-2009 13:02:01 3.7 C 65 % -2.25 C
187 03-02-2009 13:14:01 4.2 C 62 % -2.42 C
188 03-02-2009 13:26:01 4.7 C 61 % -2.16 C
189 03-02-2009 13:38:01 5.5 C 56 % -2.56 C
190 03-02-2009 13:50:01 5.9 C 54 % -2.68 C
191 03-02-2009 14:02:01 6 C 52 % -3.09 C
192 03-02-2009 14:14:00 6.5 C 50 % -3.16 C
193 03-02-2009 14:26:00 6.3 C 49 % -3.61 C
194 03-02-2009 14:38:00 6.2 C 50 % -3.43 C
195 03-02-2009 14:50:00 6.1 C 50 % -3.52 C
196 03-02-2009 15:02:00 6.2 C 51 % -3.17 C
197 03-02-2009 15:14:59 5.9 C 52 % -3.19 C
198 03-02-2009 15:25:59 5.7 C 53 % -3.12 C
199 03-02-2009 15:38:00 5.8 C 53 % -3.02 C
200 03-02-2009 15:50:59 5.5 C 53 % -3.3 C
Sensor: Nr:Datum:Temp:Feuchte:Taupunkt:
Aussen-T/F 201 03-02-2009 16:02:59 5.7 C 54 % -2.87 C
202 03-02-2009 16:14:00 5.8 C 53 % -3.02 C
203 03-02-2009 16:26:00 5.3 C 54 % -3.24 C
204 03-02-2009 16:38:59 4.6 C 57 % -3.17 C
205 03-02-2009 16:50:59 4.1 C 59 % -3.18 C
206 03-02-2009 17:02:59 3.6 C 62 % -2.98 C
207 03-02-2009 17:14:59 3.3 C 63 % -3.05 C
208 03-02-2009 17:26:59 3.1 C 65 % -2.83 C
209 03-02-2009 17:38:58 2.9 C 66 % -2.81 C
210 03-02-2009 17:50:59 2.5 C 67 % -2.99 C
211 03-02-2009 18:02:58 2.3 C 69 % -2.79 C
212 03-02-2009 18:14:58 2 C 70 % -2.88 C
213 03-02-2009 18:26:58 2 C 71 % -2.69 C
214 03-02-2009 18:38:58 1.8 C 73 % -2.51 C
215 03-02-2009 18:50:58 1.7 C 74 % -2.42 C
216 03-02-2009 19:02:58 1.7 C 74 % -2.42 C
217 03-02-2009 19:14:57 1.7 C 75 % -2.24 C
218 03-02-2009 19:26:57 1.6 C 74 % -2.52 C
219 03-02-2009 19:38:58 1.7 C 75 % -2.24 C
220 03-02-2009 19:50:57 1.5 C 75 % -2.44 C
221 03-02-2009 20:02:57 1.3 C 75 % -2.63 C
222 03-02-2009 20:14:57 1.2 C 76 % -2.55 C
223 03-02-2009 20:26:57 1.2 C 77 % -2.37 C
224 03-02-2009 20:38:57 1.3 C 78 % -2.1 C
225 03-02-2009 20:50:56 1.3 C 79 % -1.93 C
Sensor: Nr:Datum:Temp:Feuchte:Taupunkt:
Aussen-T/F 226 03-02-2009 21:02:56 1.2 C 78 % -2.2 C
227 03-02-2009 21:14:57 1 C 78 % -2.39 C
228 03-02-2009 21:26:57 1.1 C 79 % -2.12 C
229 03-02-2009 21:38:56 1.4 C 81 % -1.49 C
230 03-02-2009 21:50:56 1.5 C 81 % -1.4 C
231 03-02-2009 22:03:57 1.7 C 83 % -0.87 C
232 03-02-2009 22:15:57 1.9 C 83 % -0.67 C
233 03-02-2009 22:27:57 2 C 82 % -0.74 C
234 03-02-2009 22:39:57 2.1 C 82 % -0.64 C
235 03-02-2009 22:51:57 2.1 C 81 % -0.81 C
236 03-02-2009 23:03:57 2 C 81 % -0.91 C
237 03-02-2009 23:15:57 2 C 80 % -1.08 C
238 03-02-2009 23:27:57 2.1 C 80 % -0.98 C
239 03-02-2009 23:39:57 2.1 C 80 % -0.98 C
240 03-02-2009 23:51:58 2.1 C 79 % -1.15 C
241 04-02-2009 00:03:58 2.2 C 80 % -0.88 C
242 04-02-2009 00:15:58 2.2 C 79 % -1.05 C
243 04-02-2009 00:27:58 2.2 C 79 % -1.05 C
244 04-02-2009 00:39:58 2.2 C 80 % -0.88 C
245 04-02-2009 00:51:58 2.2 C 80 % -0.88 C
246 04-02-2009 01:03:58 2.3 C 80 % -0.79 C
247 04-02-2009 01:15:58 2.2 C 80 % -0.88 C
248 04-02-2009 01:27:58 2.2 C 80 % -0.88 C
249 04-02-2009 01:39:58 2.2 C 80 % -0.88 C
250 04-02-2009 01:51:58 2.2 C 80 % -0.88 C
Sensor: Nr:Datum:Temp:Feuchte:Taupunkt:
Aussen-T/F 251 04-02-2009 02:03:58 2.2 C 80 % -0.88 C
252 04-02-2009 02:15:58 2.2 C 79 % -1.05 C
253 04-02-2009 02:27:58 2.1 C 79 % -1.15 C
254 04-02-2009 02:39:58 2.1 C 79 % -1.15 C
255 04-02-2009 02:51:58 2.1 C 79 % -1.15 C
256 04-02-2009 03:03:58 2 C 80 % -1.08 C
257 04-02-2009 03:15:58 2 C 80 % -1.08 C
258 04-02-2009 03:27:58 2 C 80 % -1.08 C
259 04-02-2009 03:39:59 2 C 80 % -1.08 C
260 04-02-2009 03:51:59 2 C 80 % -1.08 C
261 04-02-2009 04:03:59 2 C 80 % -1.08 C
262 04-02-2009 04:15:59 1.9 C 80 % -1.18 C
263 04-02-2009 04:27:59 1.8 C 80 % -1.27 C
264 04-02-2009 04:39:59 1.8 C 80 % -1.27 C
265 04-02-2009 04:51:59 1.8 C 80 % -1.27 C
266 04-02-2009 05:03:59 1.8 C 80 % -1.27 C
267 04-02-2009 05:15:59 1.8 C 80 % -1.27 C
268 04-02-2009 05:27:59 1.8 C 80 % -1.27 C
269 04-02-2009 05:39:59 1.8 C 80 % -1.27 C
270 04-02-2009 05:51:59 1.6 C 80 % -1.47 C
271 04-02-2009 06:03:59 1.5 C 80 % -1.57 C
272 04-02-2009 06:15:59 1.5 C 81 % -1.4 C
273 04-02-2009 06:27:59 1.6 C 81 % -1.3 C
274 04-02-2009 06:39:58 1.6 C 82 % -1.13 C
275 04-02-2009 06:51:57 1.6 C 82 % -1.13 C
Sensor: Nr:Datum:Temp:Feuchte:Taupunkt:
Aussen-T/F 276 04-02-2009 07:03:57 1.6 C 82 % -1.13 C
277 04-02-2009 07:15:57 1.6 C 82 % -1.13 C
278 04-02-2009 07:27:57 1.7 C 82 % -1.03 C
279 04-02-2009 07:39:57 1.7 C 82 % -1.03 C
280 04-02-2009 07:51:57 1.7 C 82 % -1.03 C
281 04-02-2009 08:03:57 1.7 C 82 % -1.03 C
282 04-02-2009 08:15:56 1.6 C 82 % -1.13 C
283 04-02-2009 08:27:56 1.7 C 82 % -1.03 C
284 04-02-2009 08:39:56 1.7 C 83 % -0.87 C
285 04-02-2009 08:51:56 1.7 C 82 % -1.03 C
286 04-02-2009 09:03:56 1.7 C 82 % -1.03 C
287 04-02-2009 09:15:55 1.7 C 82 % -1.03 C
288 04-02-2009 09:27:55 1.7 C 83 % -0.87 C
289 04-02-2009 09:39:56 1.8 C 83 % -0.77 C
290 04-02-2009 09:51:55 1.9 C 83 % -0.67 C
291 04-02-2009 10:03:55 2.1 C 83 % -0.48 C
292 04-02-2009 10:15:56 2.2 C 82 % -0.55 C
293 04-02-2009 10:27:56 2.3 C 82 % -0.45 C
294 04-02-2009 10:39:55 2.4 C 82 % -0.35 C
295 04-02-2009 10:51:55 2.8 C 82 % 0.04 C
296 04-02-2009 11:03:55 3 C 80 % -0.1 C
297 04-02-2009 11:15:55 3.1 C 79 % -0.18 C
298 04-02-2009 11:27:55 3.1 C 78 % -0.35 C
299 04-02-2009 11:39:54 3.3 C 77 % -0.34 C
300 04-02-2009 11:51:54 3.2 C 76 % -0.61 C
Sensor: Nr:Datum:Temp:Feuchte:Taupunkt:
Aussen-T/F 301 04-02-2009 12:03:54 3.1 C 76 % -0.71 C
302 04-02-2009 12:15:54 3.4 C 77 % -0.24 C
303 04-02-2009 12:27:54 3.9 C 77 % 0.25 C
304 04-02-2009 12:39:54 4.1 C 77 % 0.44 C
305 04-02-2009 12:51:54 4.4 C 77 % 0.73 C
306 04-02-2009 13:03:54 4.6 C 77 % 0.92 C
307 04-02-2009 13:15:53 4.8 C 76 % 0.94 C
308 04-02-2009 13:27:53 5 C 74 % 0.76 C
309 04-02-2009 13:39:53 5.3 C 73 % 0.86 C
310 04-02-2009 13:51:53 5.7 C 71 % 0.86 C
311 04-02-2009 14:03:53 6 C 68 % 0.55 C
312 04-02-2009 14:15:52 6.1 C 66 % 0.24 C
313 04-02-2009 14:27:52 6.2 C 66 % 0.33 C
314 04-02-2009 14:39:53 6.2 C 66 % 0.33 C
315 04-02-2009 14:51:52 5.9 C 66 % 0.05 C
316 04-02-2009 15:03:52 6 C 66 % 0.14 C
317 04-02-2009 15:15:53 6.7 C 65 % 0.6 C
318 04-02-2009 15:27:53 6.3 C 64 % 0 C
319 04-02-2009 15:39:52 6.1 C 65 % 0.03 C
320 04-02-2009 15:51:52 6 C 66 % 0.14 C
321 04-02-2009 16:03:52 6.1 C 67 % 0.44 C
322 04-02-2009 16:15:52 6.1 C 67 % 0.44 C
323 04-02-2009 16:27:53 5.9 C 67 % 0.25 C
324 04-02-2009 16:39:51 5.7 C 68 % 0.27 C
325 04-02-2009 16:51:51 4.7 C 71 % -0.1 C
Sensor: Nr:Datum:Temp:Feuchte:Taupunkt:
Aussen-T/F 326 04-02-2009 17:03:52 4.6 C 73 % 0.19 C
327 04-02-2009 17:15:51 4.5 C 74 % 0.28 C
328 04-02-2009 17:27:51 4.5 C 74 % 0.28 C
329 04-02-2009 17:39:51 4.5 C 74 % 0.28 C
330 04-02-2009 17:51:51 4.6 C 74 % 0.38 C
331 04-02-2009 18:03:51 4.4 C 74 % 0.18 C
332 04-02-2009 18:15:50 4.2 C 74 % -0.01 C
333 04-02-2009 18:27:50 4 C 75 % -0.02 C
334 04-02-2009 18:39:51 3.7 C 76 % -0.13 C
335 04-02-2009 18:51:50 3.4 C 77 % -0.24 C
336 04-02-2009 19:03:50 3.3 C 77 % -0.34 C
337 04-02-2009 19:15:49 3.3 C 78 % -0.16 C
338 04-02-2009 19:27:49 3.2 C 78 % -0.26 C
339 04-02-2009 19:39:50 3.3 C 78 % -0.16 C
340 04-02-2009 19:51:49 3.2 C 78 % -0.26 C
341 04-02-2009 20:03:49 3.1 C 77 % -0.53 C
342 04-02-2009 20:15:50 3.1 C 78 % -0.35 C
343 04-02-2009 20:27:50 3 C 78 % -0.45 C
344 04-02-2009 20:39:49 3.2 C 78 % -0.26 C
345 04-02-2009 20:51:49 2.9 C 79 % -0.37 C
346 04-02-2009 21:03:49 2.9 C 78 % -0.55 C
347 04-02-2009 21:15:48 2.9 C 79 % -0.37 C
348 04-02-2009 21:27:48 2.8 C 78 % -0.65 C
349 04-02-2009 21:39:49 2.7 C 78 % -0.74 C
350 04-02-2009 21:51:48 2.4 C 78 % -1.03 C
Sensor: Nr:Datum:Temp:Feuchte:Taupunkt:
Aussen-T/F 351 04-02-2009 22:04:49 2 C 78 % -1.42 C
352 04-02-2009 22:16:50 1.9 C 80 % -1.18 C
353 04-02-2009 22:28:50 2.1 C 80 % -0.98 C
354 04-02-2009 22:40:50 2 C 79 % -1.25 C
355 04-02-2009 22:52:50 1.6 C 80 % -1.47 C
356 04-02-2009 23:04:50 1.6 C 81 % -1.3 C
357 04-02-2009 23:16:50 1.4 C 81 % -1.49 C
358 04-02-2009 23:28:50 1.5 C 82 % -1.23 C
359 04-02-2009 23:40:50 1.3 C 82 % -1.43 C
360 04-02-2009 23:52:50 1.2 C 82 % -1.52 C
361 05-02-2009 00:04:50 1 C 82 % -1.72 C
362 05-02-2009 00:16:50 0.9 C 83 % -1.65 C
363 05-02-2009 00:28:50 0.6 C 83 % -1.95 C
364 05-02-2009 00:40:50 0.4 C 83 % -2.14 C
365 05-02-2009 00:52:50 0.3 C 84 % -2.08 C
366 05-02-2009 01:04:50 0.1 C 84 % -2.27 C
367 05-02-2009 01:16:50 -0.1 C 84 % -2.47 C
368 05-02-2009 01:28:50 -0.2 C 84 % -2.57 C
369 05-02-2009 01:40:50 -0.5 C 84 % -2.86 C
370 05-02-2009 01:52:50 -0.6 C 84 % -2.96 C
371 05-02-2009 02:04:51 -0.6 C 85 % -2.8 C
372 05-02-2009 02:16:51 -0.8 C 86 % -2.84 C
373 05-02-2009 02:28:51 -1 C 86 % -3.04 C
374 05-02-2009 02:40:51 -1 C 86 % -3.04 C
375 05-02-2009 02:52:51 -1.1 C 87 % -2.98 C
Sensor: Nr:Datum:Temp:Feuchte:Taupunkt:
Aussen-T/F 376 05-02-2009 03:04:51 -1.1 C 87 % -2.98 C
377 05-02-2009 03:16:51 -1.2 C 88 % -2.93 C
378 05-02-2009 03:28:51 -1.2 C 88 % -2.93 C
379 05-02-2009 03:40:51 -1.1 C 89 % -2.68 C
380 05-02-2009 03:52:51 -0.9 C 89 % -2.48 C
381 05-02-2009 04:04:51 -0.9 C 89 % -2.48 C
382 05-02-2009 04:16:51 -0.9 C 89 % -2.48 C
383 05-02-2009 04:28:51 -0.6 C 90 % -2.03 C
384 05-02-2009 04:40:51 -0.9 C 89 % -2.48 C
385 05-02-2009 04:52:51 -0.7 C 90 % -2.13 C
386 05-02-2009 05:04:51 -0.8 C 90 % -2.23 C
387 05-02-2009 05:16:51 -0.7 C 90 % -2.13 C
388 05-02-2009 05:28:51 -0.7 C 90 % -2.13 C
389 05-02-2009 05:40:51 -0.6 C 90 % -2.03 C
390 05-02-2009 05:52:52 -0.8 C 90 % -2.23 C
391 05-02-2009 06:04:52 -0.9 C 90 % -2.33 C
392 05-02-2009 06:16:52 -1 C 90 % -2.43 C
393 05-02-2009 06:28:52 -1.1 C 90 % -2.53 C
394 05-02-2009 06:40:52 -1.2 C 90 % -2.63 C
395 05-02-2009 06:52:52 -1.3 C 90 % -2.73 C
396 05-02-2009 07:04:49 -1.4 C 90 % -2.82 C
397 05-02-2009 07:16:49 -1.2 C 90 % -2.63 C
398 05-02-2009 07:28:49 -1.1 C 91 % -2.38 C
399 05-02-2009 07:40:49 -1.1 C 91 % -2.38 C
400 05-02-2009 07:52:49 -1 C 91 % -2.28 C
Sensor: Nr:Datum:Temp:Feuchte:Taupunkt:
Aussen-T/F 401 05-02-2009 08:04:48 -0.9 C 91 % -2.18 C
402 05-02-2009 08:16:48 -0.6 C 92 % -1.74 C
403 05-02-2009 08:28:49 -0.3 C 92 % -1.44 C
404 05-02-2009 08:40:48 0 C 92 % -1.14 C
405 05-02-2009 08:52:48 0.2 C 93 % -0.79 C
406 05-02-2009 09:04:47 0.6 C 93 % -0.4 C
407 05-02-2009 09:16:48 0.9 C 93 % -0.1 C
408 05-02-2009 09:28:48 0.7 C 92 % -0.45 C
409 05-02-2009 09:40:48 1 C 91 % -0.3 C
410 05-02-2009 09:52:47 1 C 91 % -0.3 C
411 05-02-2009 10:04:48 1.2 C 91 % -0.1 C
412 05-02-2009 10:16:47 1.5 C 90 % 0.04 C
413 05-02-2009 10:28:47 1.7 C 89 % 0.09 C
414 05-02-2009 10:40:47 1.9 C 89 % 0.28 C
415 05-02-2009 10:52:47 2.4 C 89 % 0.78 C
416 05-02-2009 11:04:47 3.1 C 87 % 1.15 C
417 05-02-2009 11:16:46 3.6 C 87 % 1.64 C
418 05-02-2009 11:28:46 3.8 C 86 % 1.68 C
419 05-02-2009 11:40:46 4.3 C 81 % 1.34 C
420 05-02-2009 11:52:46 4.7 C 78 % 1.2 C
421 05-02-2009 12:04:46 5.1 C 73 % 0.67 C
422 05-02-2009 12:16:46 5.7 C 71 % 0.86 C
423 05-02-2009 12:28:46 6.2 C 67 % 0.54 C
424 05-02-2009 12:40:46 7 C 63 % 0.45 C
425 05-02-2009 12:52:46 8.1 C 57 % 0.11 C
Sensor: Nr:Datum:Temp:Feuchte:Taupunkt:
Aussen-T/F 426 05-02-2009 13:04:45 8.8 C 55 % 0.27 C
427 05-02-2009 13:16:46 8.8 C 54 % 0.02 C
428 05-02-2009 13:28:46 8.7 C 55 % 0.18 C
429 05-02-2009 13:40:45 9.3 C 53 % 0.23 C
430 05-02-2009 13:52:45 9.5 C 52 % 0.15 C
431 05-02-2009 14:04:45 9.8 C 51 % 0.16 C
432 05-02-2009 14:16:45 10.2 C 49 % -0.02 C
433 05-02-2009 14:28:45 10.6 C 47 % -0.23 C
434 05-02-2009 14:40:45 10.3 C 48 % -0.21 C
435 05-02-2009 14:52:44 10.1 C 48 % -0.4 C
436 05-02-2009 15:04:45 10.2 C 49 % -0.02 C
437 05-02-2009 15:16:44 10 C 50 % 0.07 C
438 05-02-2009 15:28:44 9.8 C 51 % 0.16 C
439 05-02-2009 15:40:44 9.8 C 51 % 0.16 C
440 05-02-2009 15:52:44 10 C 51 % 0.34 C
441 05-02-2009 16:04:44 9.9 C 52 % 0.52 C
442 05-02-2009 16:16:44 9.7 C 52 % 0.33 C
443 05-02-2009 16:28:44 9.5 C 53 % 0.41 C
444 05-02-2009 16:40:43 9.6 C 52 % 0.24 C
445 05-02-2009 16:52:44 9.2 C 53 % 0.13 C
446 05-02-2009 17:04:43 8.6 C 56 % 0.33 C
447 05-02-2009 17:16:43 7.8 C 58 % 0.07 C
448 05-02-2009 17:28:43 7.2 C 61 % 0.2 C
449 05-02-2009 17:40:43 6.9 C 63 % 0.36 C
450 05-02-2009 17:52:43 6.5 C 64 % 0.19 C
Sensor: Nr:Datum:Temp:Feuchte:Taupunkt:
Aussen-T/F 451 05-02-2009 18:04:43 6.1 C 66 % 0.24 C
452 05-02-2009 18:16:42 5.8 C 68 % 0.36 C
453 05-02-2009 18:28:42 5.5 C 69 % 0.28 C
454 05-02-2009 18:40:43 5 C 70 % 0 C
455 05-02-2009 18:52:42 4.8 C 73 % 0.38 C
456 05-02-2009 19:04:42 4.6 C 73 % 0.19 C
457 05-02-2009 19:16:42 4.4 C 75 % 0.37 C
458 05-02-2009 19:28:42 4.1 C 75 % 0.08 C
459 05-02-2009 19:40:42 4 C 76 % 0.16 C
460 05-02-2009 19:52:41 3.8 C 78 % 0.33 C
461 05-02-2009 20:04:42 3.7 C 79 % 0.4 C
462 05-02-2009 20:16:42 3.7 C 80 % 0.58 C
463 05-02-2009 20:28:42 3.8 C 81 % 0.85 C
464 05-02-2009 20:40:41 4.1 C 81 % 1.14 C
465 05-02-2009 20:52:42 3.9 C 80 % 0.77 C
466 05-02-2009 21:04:41 3.7 C 80 % 0.58 C
467 05-02-2009 21:16:41 3.7 C 82 % 0.92 C
468 05-02-2009 21:28:41 3.5 C 82 % 0.72 C
469 05-02-2009 21:40:41 3.4 C 83 % 0.79 C
470 05-02-2009 21:52:41 3.4 C 83 % 0.79 C
471 05-02-2009 22:04:40 3.4 C 84 % 0.96 C
472 05-02-2009 22:16:41 3.4 C 84 % 0.96 C
473 05-02-2009 22:28:41 3.4 C 84 % 0.96 C
474 05-02-2009 22:40:40 3.5 C 85 % 1.22 C
475 05-02-2009 22:52:40 3.6 C 85 % 1.32 C
Sensor: Nr:Datum:Temp:Feuchte:Taupunkt:
Aussen-T/F 476 05-02-2009 23:04:40 3.9 C 85 % 1.61 C
477 05-02-2009 23:16:40 3.8 C 83 % 1.19 C
478 05-02-2009 23:28:40 3.7 C 83 % 1.09 C
479 05-02-2009 23:40:40 3.8 C 82 % 1.02 C
480 05-02-2009 23:52:39 3.7 C 82 % 0.92 C
481 06-02-2009 00:04:40 3.3 C 81 % 0.36 C
482 06-02-2009 00:16:39 3 C 81 % 0.07 C
483 06-02-2009 00:28:39 2.4 C 82 % -0.35 C
484 06-02-2009 00:40:39 2.3 C 82 % -0.45 C
485 06-02-2009 00:52:39 2.1 C 83 % -0.48 C
486 06-02-2009 01:04:38 2 C 83 % -0.58 C
487 06-02-2009 01:16:39 1.9 C 84 % -0.51 C
488 06-02-2009 01:28:39 1.9 C 85 % -0.35 C
489 06-02-2009 01:40:38 1.7 C 85 % -0.54 C
490 06-02-2009 01:52:38 1.6 C 85 % -0.64 C
491 06-02-2009 02:04:39 1.5 C 85 % -0.74 C
492 06-02-2009 02:16:38 1.5 C 85 % -0.74 C
493 06-02-2009 02:28:38 1.4 C 85 % -0.84 C
494 06-02-2009 02:40:38 1.4 C 86 % -0.68 C
495 06-02-2009 02:53:40 1.3 C 86 % -0.78 C
496 06-02-2009 03:05:40 1.2 C 86 % -0.88 C
497 06-02-2009 03:17:40 1.3 C 86 % -0.78 C
498 06-02-2009 03:29:39 1.3 C 86 % -0.78 C
499 06-02-2009 03:41:39 1.4 C 87 % -0.52 C
500 06-02-2009 03:53:39 1.7 C 87 % -0.23 C
Sensor: Nr:Datum:Temp:Feuchte:Taupunkt:
Aussen-T/F 501 06-02-2009 04:05:39 1.6 C 87 % -0.32 C
502 06-02-2009 04:17:39 1.6 C 86 % -0.48 C
503 06-02-2009 04:29:39 1.6 C 86 % -0.48 C
504 06-02-2009 04:41:39 1.7 C 86 % -0.38 C
505 06-02-2009 04:53:38 1.8 C 86 % -0.29 C
506 06-02-2009 05:05:38 1.7 C 86 % -0.38 C
507 06-02-2009 05:17:39 1.6 C 86 % -0.48 C
508 06-02-2009 05:29:38 1.6 C 86 % -0.48 C
509 06-02-2009 05:41:38 1.5 C 86 % -0.58 C
510 06-02-2009 05:53:38 1.5 C 86 % -0.58 C
511 06-02-2009 06:05:38 1.1 C 86 % -0.97 C
512 06-02-2009 06:17:38 0.9 C 87 % -1.01 C
513 06-02-2009 06:29:37 0.9 C 87 % -1.01 C
514 06-02-2009 06:41:37 0.8 C 88 % -0.96 C
515 06-02-2009 06:53:38 0.8 C 88 % -0.96 C
516 06-02-2009 07:05:37 1 C 88 % -0.76 C
517 06-02-2009 07:17:37 0.7 C 89 % -0.9 C
518 06-02-2009 07:29:37 1 C 89 % -0.6 C
519 06-02-2009 07:41:37 1 C 90 % -0.45 C
520 06-02-2009 07:53:37 1 C 90 % -0.45 C
521 06-02-2009 08:05:36 1 C 90 % -0.45 C
522 06-02-2009 08:17:37 0.9 C 91 % -0.4 C
523 06-02-2009 08:29:37 0.7 C 90 % -0.75 C
524 06-02-2009 08:41:37 0.9 C 90 % -0.55 C
525 06-02-2009 08:53:36 1.1 C 90 % -0.35 C
Sensor: Nr:Datum:Temp:Feuchte:Taupunkt:
Aussen-T/F 526 06-02-2009 09:05:37 1 C 90 % -0.45 C
527 06-02-2009 09:17:36 1.1 C 90 % -0.35 C
528 06-02-2009 09:29:36 1 C 90 % -0.45 C
529 06-02-2009 09:41:36 1 C 91 % -0.3 C
530 06-02-2009 09:53:36 1.2 C 91 % -0.1 C
531 06-02-2009 10:05:36 1.6 C 91 % 0.29 C
532 06-02-2009 10:17:35 2 C 91 % 0.69 C
533 06-02-2009 10:29:35 2.2 C 91 % 0.89 C
534 06-02-2009 10:41:35 2.6 C 91 % 1.28 C
535 06-02-2009 10:53:35 3.1 C 91 % 1.78 C
536 06-02-2009 11:05:35 3.7 C 91 % 2.37 C
537 06-02-2009 11:17:35 4.3 C 90 % 2.81 C
538 06-02-2009 11:29:34 4.7 C 89 % 3.05 C
539 06-02-2009 11:41:34 5.2 C 88 % 3.38 C
540 06-02-2009 11:53:35 5 C 84 % 2.53 C
541 06-02-2009 12:05:34 5.2 C 81 % 2.21 C
542 06-02-2009 12:17:34 5.8 C 81 % 2.8 C
543 06-02-2009 12:29:34 6.4 C 79 % 3.03 C
544 06-02-2009 12:41:34 6.6 C 74 % 2.31 C
545 06-02-2009 12:53:34 7.1 C 72 % 2.4 C
546 06-02-2009 13:05:33 7.7 C 70 % 2.58 C
547 06-02-2009 13:17:38 7.9 C 65 % 1.74 C
548 06-02-2009 13:29:34 7.9 C 63 % 1.3 C
549 06-02-2009 13:41:34 7.9 C 63 % 1.3 C
550 06-02-2009 13:53:33 8.3 C 61 % 1.23 C
Sensor: Nr:Datum:Temp:Feuchte:Taupunkt:
Aussen-T/F 551 06-02-2009 14:05:33 9.1 C 60 % 1.76 C
552 06-02-2009 14:17:33 9.2 C 57 % 1.14 C
553 06-02-2009 14:29:33 9.2 C 56 % 0.89 C
554 06-02-2009 14:41:33 9 C 57 % 0.95 C
555 06-02-2009 14:53:33 9.1 C 56 % 0.8 C
556 06-02-2009 15:05:33 9 C 56 % 0.71 C
557 06-02-2009 15:17:32 9 C 56 % 0.71 C
558 06-02-2009 15:29:32 8.9 C 57 % 0.86 C
559 06-02-2009 15:41:32 8.7 C 57 % 0.67 C
560 06-02-2009 15:53:32 8.4 C 58 % 0.63 C
561 06-02-2009 16:05:33 8.1 C 59 % 0.58 C
562 06-02-2009 16:17:32 7.9 C 61 % 0.86 C
563 06-02-2009 16:29:32 7.8 C 61 % 0.76 C
564 06-02-2009 16:41:32 7.7 C 62 % 0.89 C
565 06-02-2009 16:53:31 7.6 C 62 % 0.8 C
566 06-02-2009 17:05:32 7.5 C 63 % 0.92 C
567 06-02-2009 17:17:31 7.3 C 63 % 0.74 C
568 06-02-2009 17:29:31 7.1 C 64 % 0.76 C
569 06-02-2009 17:41:31 7 C 64 % 0.67 C
570 06-02-2009 17:53:31 6.9 C 66 % 1 C
571 06-02-2009 18:05:31 6.9 C 66 % 1 C
572 06-02-2009 18:17:31 6.7 C 67 % 1.02 C
573 06-02-2009 18:29:31 6.6 C 67 % 0.92 C
574 06-02-2009 18:41:31 6.4 C 68 % 0.94 C
575 06-02-2009 18:53:31 6.3 C 68 % 0.84 C
Sensor: Nr:Datum:Temp:Feuchte:Taupunkt:
Aussen-T/F 576 06-02-2009 19:05:30 6.3 C 69 % 1.04 C
577 06-02-2009 19:17:31 6.2 C 70 % 1.15 C
578 06-02-2009 19:29:30 6.1 C 70 % 1.05 C
579 06-02-2009 19:41:30 6.2 C 71 % 1.34 C
580 06-02-2009 19:53:30 6.2 C 71 % 1.34 C
581 06-02-2009 20:05:29 6.1 C 71 % 1.25 C
582 06-02-2009 20:17:30 6 C 71 % 1.15 C
583 06-02-2009 20:29:30 5.9 C 72 % 1.25 C
584 06-02-2009 20:41:30 5.8 C 73 % 1.34 C
585 06-02-2009 20:53:29 5.9 C 73 % 1.44 C
586 06-02-2009 21:05:29 5.9 C 73 % 1.44 C
587 06-02-2009 21:17:29 5.9 C 74 % 1.63 C
588 06-02-2009 21:29:29 5.9 C 73 % 1.44 C
589 06-02-2009 21:41:29 5.8 C 73 % 1.34 C
590 06-02-2009 21:53:29 5.9 C 74 % 1.63 C
591 06-02-2009 22:05:29 5.6 C 74 % 1.34 C
592 06-02-2009 22:17:28 5.6 C 74 % 1.34 C
593 06-02-2009 22:29:29 5.6 C 75 % 1.53 C
594 06-02-2009 22:41:29 5.4 C 75 % 1.33 C
595 06-02-2009 22:54:28 5.3 C 76 % 1.42 C
596 06-02-2009 23:06:28 5 C 76 % 1.13 C
597 06-02-2009 23:18:28 4.9 C 77 % 1.22 C
598 06-02-2009 23:30:28 4.8 C 78 % 1.3 C
599 06-02-2009 23:42:28 4.8 C 78 % 1.3 C
600 06-02-2009 23:54:28 4.8 C 79 % 1.47 C
Sensor: Nr:Datum:Temp:Feuchte:Taupunkt:
Aussen-T/F 601 07-02-2009 00:06:28 4.9 C 79 % 1.57 C
602 07-02-2009 00:18:28 5 C 78 % 1.49 C
603 07-02-2009 00:30:28 5 C 77 % 1.31 C
604 07-02-2009 00:42:28 5.1 C 77 % 1.41 C
605 07-02-2009 00:54:28 5 C 77 % 1.31 C
606 07-02-2009 01:06:28 5 C 77 % 1.31 C
607 07-02-2009 01:18:28 4.9 C 78 % 1.39 C
608 07-02-2009 01:30:28 4.8 C 77 % 1.12 C
609 07-02-2009 01:42:29 4.7 C 77 % 1.02 C
610 07-02-2009 01:54:29 4.7 C 78 % 1.2 C
611 07-02-2009 02:06:29 4.8 C 78 % 1.3 C
612 07-02-2009 02:18:29 4.8 C 78 % 1.3 C
613 07-02-2009 02:30:29 4.8 C 78 % 1.3 C
614 07-02-2009 02:42:29 4.7 C 78 % 1.2 C
615 07-02-2009 02:54:29 4.6 C 78 % 1.1 C
616 07-02-2009 03:06:29 4.6 C 78 % 1.1 C
617 07-02-2009 03:18:29 4.5 C 79 % 1.18 C
618 07-02-2009 03:30:29 4.4 C 79 % 1.09 C
619 07-02-2009 03:42:29 4.4 C 79 % 1.09 C
620 07-02-2009 03:54:29 4.3 C 79 % 0.99 C
621 07-02-2009 04:06:29 4.3 C 79 % 0.99 C
622 07-02-2009 04:18:29 4.3 C 79 % 0.99 C
623 07-02-2009 04:30:29 4.2 C 79 % 0.89 C
624 07-02-2009 04:42:29 4.1 C 79 % 0.79 C
625 07-02-2009 04:54:29 4.1 C 79 % 0.79 C
Sensor: Nr:Datum:Temp:Feuchte:Taupunkt:
Aussen-T/F 626 07-02-2009 05:06:29 4.1 C 79 % 0.79 C
627 07-02-2009 05:18:29 4 C 79 % 0.7 C
628 07-02-2009 05:30:29 3.9 C 80 % 0.77 C
629 07-02-2009 05:42:30 3.9 C 80 % 0.77 C
630 07-02-2009 05:54:30 3.8 C 80 % 0.68 C
631 07-02-2009 06:06:30 3.8 C 80 % 0.68 C
632 07-02-2009 06:18:30 3.7 C 80 % 0.58 C
633 07-02-2009 06:30:30 3.6 C 80 % 0.48 C
634 07-02-2009 06:42:30 3.7 C 81 % 0.75 C
635 07-02-2009 06:54:30 3.6 C 81 % 0.65 C
636 07-02-2009 07:06:30 3.6 C 81 % 0.65 C
637 07-02-2009 07:18:28 3.7 C 81 % 0.75 C
638 07-02-2009 07:30:29 3.7 C 81 % 0.75 C
639 07-02-2009 07:42:30 3.7 C 81 % 0.75 C
640 07-02-2009 07:54:28 3.6 C 81 % 0.65 C
641 07-02-2009 08:06:28 3.6 C 81 % 0.65 C
642 07-02-2009 08:18:28 3.5 C 82 % 0.72 C
643 07-02-2009 08:30:28 3.5 C 82 % 0.72 C
644 07-02-2009 08:42:28 3.5 C 83 % 0.89 C
645 07-02-2009 08:54:28 3.6 C 84 % 1.16 C
646 07-02-2009 09:06:28 3.6 C 84 % 1.16 C
647 07-02-2009 09:18:27 3.7 C 86 % 1.58 C
648 07-02-2009 09:30:27 3.8 C 87 % 1.84 C
649 07-02-2009 09:42:28 3.8 C 88 % 2 C
650 07-02-2009 09:54:27 3.6 C 88 % 1.8 C
Sensor: Nr:Datum:Temp:Feuchte:Taupunkt:
Aussen-T/F 651 07-02-2009 10:06:27 3.8 C 89 % 2.16 C
652 07-02-2009 10:18:26 4 C 89 % 2.36 C
653 07-02-2009 10:30:27 4.2 C 89 % 2.55 C
654 07-02-2009 10:42:27 4.2 C 89 % 2.55 C
655 07-02-2009 10:54:26 4.3 C 89 % 2.65 C
656 07-02-2009 11:06:26 4.2 C 89 % 2.55 C
657 07-02-2009 11:18:27 4.5 C 89 % 2.85 C
658 07-02-2009 11:30:26 4.6 C 89 % 2.95 C
659 07-02-2009 11:42:26 4.6 C 89 % 2.95 C
660 07-02-2009 11:54:26 4.7 C 89 % 3.05 C
661 07-02-2009 12:06:26 4.8 C 89 % 3.14 C
662 07-02-2009 12:18:26 4.8 C 89 % 3.14 C
663 07-02-2009 12:30:25 4.8 C 89 % 3.14 C
664 07-02-2009 12:42:25 4.9 C 89 % 3.24 C
665 07-02-2009 12:54:26 5 C 88 % 3.18 C
666 07-02-2009 13:06:25 5 C 88 % 3.18 C
667 07-02-2009 13:18:25 5 C 89 % 3.34 C
668 07-02-2009 13:30:25 5 C 89 % 3.34 C
669 07-02-2009 13:42:25 5 C 89 % 3.34 C
670 07-02-2009 13:54:01 5.3 C 90 % 3.8 C
671 07-02-2009 14:06:01 5.4 C 90 % 3.89 C
672 07-02-2009 14:18:01 5.8 C 90 % 4.29 C
673 07-02-2009 14:30:01 5.7 C 90 % 4.19 C
674 07-02-2009 14:42:00 5.6 C 89 % 3.93 C
675 07-02-2009 14:54:01 5.8 C 89 % 4.13 C
Sensor: Nr:Datum:Temp:Feuchte:Taupunkt:
Aussen-T/F 676 07-02-2009 15:06:01 5.7 C 88 % 3.87 C
677 07-02-2009 15:18:00 5.4 C 87 % 3.41 C
678 07-02-2009 15:30:00 5.1 C 86 % 2.96 C
679 07-02-2009 15:42:00 4.6 C 87 % 2.63 C
680 07-02-2009 15:54:00 4.4 C 87 % 2.43 C
681 07-02-2009 16:06:00 4.3 C 87 % 2.33 C
682 07-02-2009 16:18:59 4.2 C 87 % 2.23 C
683 07-02-2009 16:30:00 4.2 C 87 % 2.23 C
684 07-02-2009 16:42:00 4.1 C 86 % 1.97 C
685 07-02-2009 16:54:59 4 C 85 % 1.71 C
686 07-02-2009 17:06:59 3.9 C 86 % 1.78 C
687 07-02-2009 17:18:00 3.7 C 86 % 1.58 C
688 07-02-2009 17:30:00 3.6 C 86 % 1.48 C
689 07-02-2009 17:42:59 3.6 C 87 % 1.64 C
690 07-02-2009 17:54:59 3.4 C 86 % 1.29 C
691 07-02-2009 18:06:59 3.4 C 86 % 1.29 C
692 07-02-2009 18:18:59 3.3 C 86 % 1.19 C
693 07-02-2009 18:30:58 3.2 C 86 % 1.09 C
694 07-02-2009 18:42:58 3.3 C 86 % 1.19 C
695 07-02-2009 18:54:59 3.1 C 85 % 0.83 C
696 07-02-2009 19:06:58 3 C 86 % 0.89 C
697 07-02-2009 19:18:58 3.1 C 86 % 0.99 C
698 07-02-2009 19:30:58 3 C 85 % 0.73 C
699 07-02-2009 19:42:58 3 C 85 % 0.73 C
700 07-02-2009 19:54:58 3.1 C 84 % 0.67 C
Sensor: Nr:Datum:Temp:Feuchte:Taupunkt:
Aussen-T/F 701 07-02-2009 20:06:58 3.1 C 83 % 0.5 C
702 07-02-2009 20:18:57 3.1 C 83 % 0.5 C
703 07-02-2009 20:30:58 3 C 82 % 0.24 C
704 07-02-2009 20:42:58 3 C 81 % 0.07 C
705 07-02-2009 20:54:57 3 C 80 % -0.1 C
706 07-02-2009 21:06:57 3 C 80 % -0.1 C
707 07-02-2009 21:18:56 3 C 79 % -0.28 C
708 07-02-2009 21:30:57 3.1 C 78 % -0.35 C
709 07-02-2009 21:42:57 3.1 C 77 % -0.53 C
710 07-02-2009 21:54:56 3.1 C 77 % -0.53 C
711 07-02-2009 22:07:57 3.1 C 76 % -0.71 C
712 07-02-2009 22:19:57 3.1 C 75 % -0.89 C
713 07-02-2009 22:31:57 3 C 75 % -0.99 C
714 07-02-2009 22:43:58 3 C 74 % -1.17 C
715 07-02-2009 22:55:58 2.9 C 74 % -1.27 C
716 07-02-2009 23:07:58 2.8 C 74 % -1.36 C
717 07-02-2009 23:19:58 2.7 C 74 % -1.46 C
718 07-02-2009 23:31:58 2.5 C 74 % -1.65 C
719 07-02-2009 23:43:58 2.7 C 74 % -1.46 C
720 07-02-2009 23:55:58 2.5 C 72 % -2.02 C
721 08-02-2009 00:07:58 2.3 C 73 % -2.03 C
722 08-02-2009 00:19:58 2.3 C 74 % -1.85 C
723 08-02-2009 00:31:58 2 C 74 % -2.13 C
724 08-02-2009 00:43:58 1.8 C 75 % -2.15 C
725 08-02-2009 00:55:58 1.7 C 74 % -2.42 C
Sensor: Nr:Datum:Temp:Feuchte:Taupunkt:
Aussen-T/F 726 08-02-2009 01:07:58 1.7 C 74 % -2.42 C
727 08-02-2009 01:19:58 1.6 C 74 % -2.52 C
728 08-02-2009 01:31:58 1.8 C 73 % -2.51 C
729 08-02-2009 01:43:58 1.9 C 72 % -2.6 C
730 08-02-2009 01:55:58 1.9 C 72 % -2.6 C
731 08-02-2009 02:07:58 2 C 71 % -2.69 C
732 08-02-2009 02:19:58 2 C 71 % -2.69 C
733 08-02-2009 02:31:58 1.9 C 72 % -2.6 C
734 08-02-2009 02:43:58 1.8 C 72 % -2.7 C
735 08-02-2009 02:55:59 1.8 C 73 % -2.51 C
736 08-02-2009 03:07:59 1.8 C 71 % -2.88 C
737 08-02-2009 03:19:59 1.7 C 71 % -2.98 C
738 08-02-2009 03:31:59 1.6 C 71 % -3.08 C
739 08-02-2009 03:43:59 1.7 C 71 % -2.98 C
740 08-02-2009 03:55:59 1.7 C 71 % -2.98 C
741 08-02-2009 04:07:59 1.7 C 70 % -3.17 C
742 08-02-2009 04:19:59 1.7 C 70 % -3.17 C
743 08-02-2009 04:31:59 1.7 C 70 % -3.17 C
744 08-02-2009 04:43:59 1.7 C 70 % -3.17 C
745 08-02-2009 04:55:59 1.7 C 70 % -3.17 C
746 08-02-2009 05:07:59 1.7 C 70 % -3.17 C
747 08-02-2009 05:19:59 1.7 C 70 % -3.17 C
748 08-02-2009 05:31:59 1.7 C 69 % -3.36 C
749 08-02-2009 05:43:59 1.6 C 69 % -3.46 C
750 08-02-2009 05:55:59 1.5 C 69 % -3.55 C
Sensor: Nr:Datum:Temp:Feuchte:Taupunkt:
Aussen-T/F 751 08-02-2009 06:07:59 1.4 C 69 % -3.65 C
752 08-02-2009 06:19:59 1.4 C 70 % -3.46 C
753 08-02-2009 06:31:59 1.3 C 70 % -3.55 C
754 08-02-2009 06:43:59 1.3 C 70 % -3.55 C
755 08-02-2009 06:56:00 1.3 C 68 % -3.94 C
756 08-02-2009 07:08:00 1.5 C 64 % -4.55 C
757 08-02-2009 07:19:57 1.3 C 64 % -4.74 C
758 08-02-2009 07:31:57 1.3 C 64 % -4.74 C
759 08-02-2009 07:43:58 1.4 C 63 % -4.86 C
760 08-02-2009 07:55:56 1.4 C 63 % -4.86 C
761 08-02-2009 08:07:57 1.5 C 63 % -4.76 C
762 08-02-2009 08:19:56 1.6 C 62 % -4.88 C
763 08-02-2009 08:31:56 1.7 C 61 % -5 C
764 08-02-2009 08:43:56 1.7 C 63 % -4.57 C
765 08-02-2009 08:55:56 1.8 C 62 % -4.69 C
766 08-02-2009 09:07:56 1.9 C 61 % -4.81 C
767 08-02-2009 09:19:55 2 C 60 % -4.93 C
768 08-02-2009 09:31:55 2.1 C 59 % -5.06 C
769 08-02-2009 09:43:55 2.1 C 59 % -5.06 C
770 08-02-2009 09:55:55 2.2 C 59 % -4.96 C
771 08-02-2009 10:07:55 2.3 C 60 % -4.65 C
772 08-02-2009 10:19:55 2.5 C 58 % -4.91 C
773 08-02-2009 10:31:55 2.7 C 57 % -4.95 C
774 08-02-2009 10:43:55 2.9 C 56 % -4.99 C
775 08-02-2009 10:55:55 3.3 C 54 % -5.1 C
Sensor: Nr:Datum:Temp:Feuchte:Taupunkt:
Aussen-T/F 776 08-02-2009 11:07:54 3.4 C 53 % -5.25 C
777 08-02-2009 11:19:55 3.4 C 54 % -5.01 C
778 08-02-2009 11:31:54 3.6 C 54 % -4.82 C
779 08-02-2009 11:43:54 3.8 C 53 % -4.88 C
780 08-02-2009 11:55:54 4 C 51 % -5.2 C
781 08-02-2009 12:07:55 4.1 C 50 % -5.37 C
782 08-02-2009 12:19:54 4.3 C 49 % -5.45 C
783 08-02-2009 12:31:53 4.3 C 46 % -6.28 C
784 08-02-2009 12:43:53 4.4 C 46 % -6.18 C
785 08-02-2009 12:55:54 4.4 C 47 % -5.9 C
786 08-02-2009 13:07:53 4.5 C 46 % -6.09 C
787 08-02-2009 13:19:53 4.5 C 47 % -5.81 C
788 08-02-2009 13:31:54 4.6 C 48 % -5.45 C
789 08-02-2009 13:43:54 4.5 C 47 % -5.81 C
790 08-02-2009 13:55:53 4.5 C 46 % -6.09 C
791 08-02-2009 14:07:53 4.8 C 46 % -5.82 C
792 08-02-2009 14:19:53 5.3 C 44 % -5.94 C
793 08-02-2009 14:31:53 5.6 C 42 % -6.28 C
794 08-02-2009 14:43:54 5.7 C 39 % -7.15 C
795 08-02-2009 14:55:52 5.1 C 40 % -7.36 C
796 08-02-2009 15:07:52 4.7 C 43 % -6.79 C
797 08-02-2009 15:19:52 4.7 C 43 % -6.79 C
798 08-02-2009 15:31:52 4.7 C 43 % -6.79 C
799 08-02-2009 15:43:52 4.5 C 42 % -7.27 C
800 08-02-2009 15:55:51 4.4 C 45 % -6.47 C
Sensor: Nr:Datum:Temp:Feuchte:Taupunkt:
Aussen-T/F 801 08-02-2009 16:07:52 4.1 C 47 % -6.18 C
802 08-02-2009 16:19:52 4 C 48 % -6 C
803 08-02-2009 16:31:51 3.8 C 49 % -5.91 C
804 08-02-2009 16:43:51 3.8 C 50 % -5.65 C
805 08-02-2009 16:55:52 3.7 C 50 % -5.74 C
806 08-02-2009 17:07:51 3.6 C 46 % -6.92 C
807 08-02-2009 17:19:51 3.5 C 44 % -7.58 C
808 08-02-2009 17:31:51 3.4 C 43 % -7.97 C
809 08-02-2009 17:43:51 3.4 C 43 % -7.97 C
810 08-02-2009 17:55:51 3.2 C 43 % -8.15 C
811 08-02-2009 18:07:51 3.2 C 44 % -7.85 C
812 08-02-2009 18:19:50 3.1 C 43 % -8.24 C
813 08-02-2009 18:31:51 3 C 43 % -8.33 C
814 08-02-2009 18:43:51 2.9 C 44 % -8.13 C
815 08-02-2009 18:55:50 2.8 C 44 % -8.22 C
816 08-02-2009 19:07:50 2.6 C 45 % -8.11 C
817 08-02-2009 19:19:49 2.3 C 46 % -8.11 C
818 08-02-2009 19:31:50 2.1 C 47 % -8.01 C
819 08-02-2009 19:43:50 2.1 C 47 % -8.01 C
820 08-02-2009 19:55:49 2.1 C 49 % -7.48 C
821 08-02-2009 20:07:50 2.1 C 49 % -7.48 C
822 08-02-2009 20:19:49 2.3 C 48 % -7.56 C
823 08-02-2009 20:31:49 2.2 C 48 % -7.65 C
824 08-02-2009 20:43:49 2.2 C 49 % -7.39 C
825 08-02-2009 20:55:49 2.1 C 50 % -7.22 C
Sensor: Nr:Datum:Temp:Feuchte:Taupunkt:
Aussen-T/F 826 08-02-2009 21:07:49 2.2 C 50 % -7.12 C
827 08-02-2009 21:19:49 2.2 C 50 % -7.12 C
828 08-02-2009 21:31:49 2.3 C 50 % -7.03 C
829 08-02-2009 21:43:49 2.2 C 50 % -7.12 C
830 08-02-2009 21:55:48 2.1 C 51 % -6.96 C
831 08-02-2009 22:07:49 2.2 C 52 % -6.62 C
832 08-02-2009 22:20:49 2.2 C 53 % -6.37 C
833 08-02-2009 22:32:49 2.3 C 53 % -6.28 C
834 08-02-2009 22:44:49 2.3 C 54 % -6.03 C
835 08-02-2009 22:56:49 2.2 C 55 % -5.89 C
836 08-02-2009 23:08:49 2.2 C 55 % -5.89 C
837 08-02-2009 23:20:49 2.1 C 56 % -5.74 C
838 08-02-2009 23:32:50 2.2 C 56 % -5.65 C
839 08-02-2009 23:44:50 2.3 C 56 % -5.56 C
840 08-02-2009 23:56:50 2.3 C 56 % -5.56 C
841 09-02-2009 00:08:50 2.4 C 56 % -5.46 C
842 09-02-2009 00:20:50 2.4 C 56 % -5.46 C
843 09-02-2009 00:32:50 2.3 C 57 % -5.32 C
844 09-02-2009 00:44:50 2.3 C 57 % -5.32 C
845 09-02-2009 00:56:50 2.3 C 57 % -5.32 C
846 09-02-2009 01:08:50 2.3 C 57 % -5.32 C
847 09-02-2009 01:20:50 2.3 C 57 % -5.32 C
848 09-02-2009 01:32:50 2.2 C 57 % -5.42 C
849 09-02-2009 01:44:50 2.2 C 58 % -5.19 C
850 09-02-2009 01:56:50 2.1 C 58 % -5.28 C
Sensor: Nr:Datum:Temp:Feuchte:Taupunkt:
Aussen-T/F 851 09-02-2009 02:08:50 2.1 C 58 % -5.28 C
852 09-02-2009 02:20:50 2.2 C 58 % -5.19 C
853 09-02-2009 02:32:50 2.2 C 58 % -5.19 C
854 09-02-2009 02:44:50 2.1 C 58 % -5.28 C
855 09-02-2009 02:56:50 2.1 C 58 % -5.28 C
856 09-02-2009 03:08:50 1.8 C 60 % -5.12 C
857 09-02-2009 03:20:50 1.6 C 60 % -5.31 C
858 09-02-2009 03:32:50 1.7 C 61 % -5 C
859 09-02-2009 03:44:51 1.5 C 61 % -5.19 C
860 09-02-2009 03:56:51 1.4 C 62 % -5.07 C
861 09-02-2009 04:08:51 1.3 C 63 % -4.95 C
862 09-02-2009 04:20:51 1.1 C 64 % -4.93 C
863 09-02-2009 04:32:51 0.9 C 65 % -4.92 C
864 09-02-2009 04:44:51 0.4 C 66 % -5.19 C
865 09-02-2009 04:56:51 0 C 67 % -5.38 C
866 09-02-2009 05:08:51 0.1 C 70 % -4.71 C
867 09-02-2009 05:20:51 0.5 C 69 % -4.51 C
868 09-02-2009 05:32:51 1.2 C 63 % -5.05 C
869 09-02-2009 05:44:51 1.4 C 60 % -5.5 C
870 09-02-2009 05:56:51 1.4 C 60 % -5.5 C
871 09-02-2009 06:08:51 1.5 C 59 % -5.62 C
872 09-02-2009 06:20:51 1.7 C 59 % -5.43 C
873 09-02-2009 06:32:51 1.8 C 57 % -5.79 C
874 09-02-2009 06:44:48 1.9 C 58 % -5.47 C
875 09-02-2009 06:56:48 1.9 C 58 % -5.47 C
Sensor: Nr:Datum:Temp:Feuchte:Taupunkt:
Aussen-T/F 876 09-02-2009 07:08:49 1.8 C 59 % -5.34 C
877 09-02-2009 07:20:48 1.9 C 59 % -5.25 C
878 09-02-2009 07:32:48 2 C 58 % -5.38 C
879 09-02-2009 07:44:48 1.9 C 59 % -5.25 C
880 09-02-2009 07:56:48 1.8 C 59 % -5.34 C
881 09-02-2009 08:08:48 2 C 58 % -5.38 C
882 09-02-2009 08:20:48 2.1 C 57 % -5.51 C
883 09-02-2009 08:32:48 2.2 C 57 % -5.42 C
884 09-02-2009 08:44:48 2.3 C 57 % -5.32 C
885 09-02-2009 08:56:48 2.1 C 59 % -5.06 C
886 09-02-2009 09:08:47 1.8 C 63 % -4.48 C
887 09-02-2009 09:20:48 1.9 C 65 % -3.97 C
888 09-02-2009 09:32:47 2 C 64 % -4.08 C
889 09-02-2009 09:44:47 2.1 C 62 % -4.4 C
890 09-02-2009 09:56:47 2.2 C 62 % -4.31 C
891 09-02-2009 10:08:46 2.4 C 61 % -4.34 C
892 09-02-2009 10:20:47 2.5 C 61 % -4.24 C
893 09-02-2009 10:32:47 2.6 C 61 % -4.15 C
894 09-02-2009 10:44:46 2.7 C 60 % -4.27 C
895 09-02-2009 10:56:46 2.9 C 59 % -4.31 C
896 09-02-2009 11:08:47 3 C 58 % -4.44 C
897 09-02-2009 11:20:46 3.1 C 58 % -4.34 C
898 09-02-2009 11:32:46 3.2 C 58 % -4.25 C
899 09-02-2009 11:44:46 3.2 C 59 % -4.02 C
900 09-02-2009 11:56:46 3.2 C 59 % -4.02 C
Sensor: Nr:Datum:Temp:Feuchte:Taupunkt:
Aussen-T/F 901 09-02-2009 12:08:46 3.4 C 59 % -3.84 C
902 09-02-2009 12:20:46 3.4 C 60 % -3.61 C
903 09-02-2009 12:32:45 3.5 C 61 % -3.3 C
904 09-02-2009 12:44:46 3.5 C 61 % -3.3 C
905 09-02-2009 12:56:46 3.8 C 61 % -3.01 C
906 09-02-2009 13:08:45 3.8 C 61 % -3.01 C
907 09-02-2009 13:20:45 4.1 C 58 % -3.41 C
908 09-02-2009 13:32:45 4.3 C 58 % -3.22 C
909 09-02-2009 13:44:45 4.2 C 57 % -3.54 C
910 09-02-2009 13:56:45 4 C 59 % -3.27 C
911 09-02-2009 14:08:44 4 C 59 % -3.27 C
912 09-02-2009 14:20:45 4.5 C 58 % -3.03 C
913 09-02-2009 14:32:45 4.4 C 57 % -3.36 C
914 09-02-2009 14:44:45 4.4 C 58 % -3.12 C
915 09-02-2009 14:56:45 4.2 C 59 % -3.08 C
916 09-02-2009 15:08:45 4 C 59 % -3.27 C
917 09-02-2009 15:20:44 4 C 60 % -3.05 C
918 09-02-2009 15:32:44 4 C 60 % -3.05 C
919 09-02-2009 15:44:43 3.9 C 62 % -2.7 C
920 09-02-2009 15:56:43 3.9 C 62 % -2.7 C
921 09-02-2009 16:08:43 3.8 C 62 % -2.8 C
922 09-02-2009 16:20:44 3.8 C 62 % -2.8 C
923 09-02-2009 16:32:43 3.7 C 63 % -2.68 C
924 09-02-2009 16:44:43 3.6 C 63 % -2.77 C
925 09-02-2009 16:56:43 3.6 C 63 % -2.77 C
Sensor: Nr:Datum:Temp:Feuchte:Taupunkt:
Aussen-T/F 926 09-02-2009 17:08:43 3.5 C 63 % -2.86 C
927 09-02-2009 17:20:43 3.4 C 64 % -2.75 C
928 09-02-2009 17:32:43 3.3 C 65 % -2.64 C
929 09-02-2009 17:44:43 3.3 C 65 % -2.64 C
930 09-02-2009 17:56:43 3.1 C 66 % -2.62 C
931 09-02-2009 18:08:43 3 C 67 % -2.51 C
932 09-02-2009 18:20:42 2.8 C 70 % -2.11 C
933 09-02-2009 18:32:42 2.6 C 73 % -1.74 C
934 09-02-2009 18:44:42 2.4 C 76 % -1.39 C
935 09-02-2009 18:56:42 2.2 C 78 % -1.23 C
936 09-02-2009 19:08:42 2.1 C 80 % -0.98 C
937 09-02-2009 19:20:41 2 C 82 % -0.74 C
938 09-02-2009 19:32:42 2 C 83 % -0.58 C
939 09-02-2009 19:44:42 2 C 84 % -0.41 C
940 09-02-2009 19:56:42 1.8 C 85 % -0.45 C
941 09-02-2009 20:08:41 1.8 C 86 % -0.29 C
942 09-02-2009 20:20:41 1.7 C 86 % -0.38 C
943 09-02-2009 20:32:41 1.7 C 87 % -0.23 C
944 09-02-2009 20:44:41 1.7 C 87 % -0.23 C
945 09-02-2009 20:56:41 1.6 C 87 % -0.32 C
946 09-02-2009 21:08:40 1.3 C 87 % -0.62 C
947 09-02-2009 21:20:41 1.4 C 88 % -0.36 C
948 09-02-2009 21:33:40 1.4 C 89 % -0.21 C
949 09-02-2009 21:45:40 1.3 C 89 % -0.31 C
950 09-02-2009 21:57:40 1.1 C 89 % -0.51 C
Sensor: Nr:Datum:Temp:Feuchte:Taupunkt:
Aussen-T/F 951 09-02-2009 22:09:40 1 C 89 % -0.6 C
952 09-02-2009 22:21:40 1.3 C 90 % -0.15 C
953 09-02-2009 22:33:40 1.4 C 90 % -0.06 C
954 09-02-2009 22:45:40 1.5 C 91 % 0.19 C
955 09-02-2009 22:57:40 1.7 C 91 % 0.39 C
956 09-02-2009 23:09:40 1.7 C 91 % 0.39 C
957 09-02-2009 23:21:40 1.7 C 91 % 0.39 C
958 09-02-2009 23:33:40 1.7 C 91 % 0.39 C
959 09-02-2009 23:45:40 1.7 C 91 % 0.39 C
960 09-02-2009 23:57:40 1.8 C 92 % 0.64 C
961 10-02-2009 00:09:40 1.8 C 92 % 0.64 C
962 10-02-2009 00:21:41 1.9 C 92 % 0.74 C
963 10-02-2009 00:33:41 1.9 C 93 % 0.89 C
964 10-02-2009 00:45:41 2 C 92 % 0.84 C
965 10-02-2009 00:57:41 2 C 93 % 0.99 C
966 10-02-2009 01:09:41 2.1 C 93 % 1.09 C
967 10-02-2009 01:21:41 2.2 C 93 % 1.19 C
968 10-02-2009 01:33:41 2.3 C 93 % 1.29 C
969 10-02-2009 01:45:41 2.4 C 94 % 1.54 C
970 10-02-2009 01:57:41 2.5 C 94 % 1.63 C
971 10-02-2009 02:09:41 2.6 C 94 % 1.73 C
972 10-02-2009 02:21:41 2.8 C 94 % 1.93 C
973 10-02-2009 02:33:41 3 C 94 % 2.13 C
974 10-02-2009 02:45:41 3.3 C 94 % 2.43 C
975 10-02-2009 02:57:41 3.4 C 95 % 2.68 C
Sensor: Nr:Datum:Temp:Feuchte:Taupunkt:
Aussen-T/F 976 10-02-2009 03:09:41 3.6 C 95 % 2.88 C
977 10-02-2009 03:21:41 3.8 C 95 % 3.07 C
978 10-02-2009 03:33:41 3.9 C 95 % 3.17 C
979 10-02-2009 03:45:41 4.1 C 95 % 3.37 C
980 10-02-2009 03:57:41 4.3 C 95 % 3.57 C
981 10-02-2009 04:09:41 4.5 C 95 % 3.77 C
982 10-02-2009 04:21:42 4.8 C 95 % 4.07 C
983 10-02-2009 04:33:42 5.1 C 95 % 4.37 C
984 10-02-2009 04:45:42 5.1 C 95 % 4.37 C
985 10-02-2009 04:57:42 5.2 C 95 % 4.47 C
986 10-02-2009 05:09:42 5.3 C 95 % 4.57 C
987 10-02-2009 05:21:42 5.7 C 95 % 4.96 C
988 10-02-2009 05:33:40 5.7 C 95 % 4.96 C
989 10-02-2009 05:45:40 5.9 C 95 % 5.16 C
990 10-02-2009 05:57:40 6.2 C 95 % 5.46 C
991 10-02-2009 06:09:41 6.4 C 95 % 5.66 C
992 10-02-2009 06:21:40 6.4 C 95 % 5.66 C
993 10-02-2009 06:33:40 6.4 C 94 % 5.51 C
994 10-02-2009 06:45:39 6.4 C 94 % 5.51 C
995 10-02-2009 06:57:39 6.5 C 94 % 5.61 C
996 10-02-2009 07:09:40 6.5 C 93 % 5.45 C
997 10-02-2009 07:21:40 6.4 C 93 % 5.35 C
998 10-02-2009 07:33:39 6.3 C 93 % 5.25 C
999 10-02-2009 07:45:39 6.5 C 92 % 5.3 C
1000 10-02-2009 07:57:39 6.5 C 92 % 5.3 C
Sensor: Nr:Datum:Temp:Feuchte:Taupunkt:
Aussen-T/F 1001 10-02-2009 08:09:39 6.5 C 90 % 4.98 C
1002 10-02-2009 08:21:39 6.4 C 90 % 4.88 C
1003 10-02-2009 08:33:38 6.4 C 90 % 4.88 C
1004 10-02-2009 08:45:39 6.4 C 90 % 4.88 C
1005 10-02-2009 08:57:39 6.6 C 89 % 4.92 C
1006 10-02-2009 09:09:39 6.6 C 88 % 4.76 C
1007 10-02-2009 09:21:38 6.6 C 86 % 4.43 C
1008 10-02-2009 09:33:38 6.6 C 86 % 4.43 C
1009 10-02-2009 09:45:38 6.8 C 86 % 4.63 C
1010 10-02-2009 09:57:38 6.8 C 86 % 4.63 C
1011 10-02-2009 10:09:38 6.9 C 86 % 4.72 C
1012 10-02-2009 10:21:37 7.1 C 84 % 4.58 C
1013 10-02-2009 10:33:38 7.5 C 80 % 4.28 C
1014 10-02-2009 10:45:37 7.6 C 74 % 3.27 C
1015 10-02-2009 10:57:37 7.2 C 68 % 1.7 C
1016 10-02-2009 11:09:37 6.7 C 69 % 1.43 C
1017 10-02-2009 11:21:38 6.1 C 67 % 0.44 C
1018 10-02-2009 11:33:37 5.7 C 69 % 0.47 C
1019 10-02-2009 11:45:37 6 C 63 % -0.5 C
1020 10-02-2009 11:57:37 6.1 C 63 % -0.4 C
1021 10-02-2009 12:09:37 6.4 C 61 % -0.56 C
1022 10-02-2009 12:21:37 6.3 C 59 % -1.11 C
1023 10-02-2009 12:33:36 5.8 C 60 % -1.35 C
1024 10-02-2009 12:45:37 5.2 C 61 % -1.69 C
1025 10-02-2009 12:57:37 5 C 62 % -1.66 C
Sensor: Nr:Datum:Temp:Feuchte:Taupunkt:
Aussen-T/F 1026 10-02-2009 13:09:36 4.7 C 64 % -1.51 C
1027 10-02-2009 13:21:36 4.4 C 68 % -0.98 C
1028 10-02-2009 13:33:36 4.4 C 67 % -1.18 C
1029 10-02-2009 13:45:36 4.4 C 67 % -1.18 C
1030 10-02-2009 13:57:36 4.3 C 66 % -1.48 C
1031 10-02-2009 14:09:36 4.4 C 66 % -1.38 C
1032 10-02-2009 14:21:35 4.4 C 66 % -1.38 C
1033 10-02-2009 14:33:36 4.4 C 65 % -1.59 C
1034 10-02-2009 14:45:35 4.4 C 64 % -1.8 C
1035 10-02-2009 14:57:35 4.3 C 64 % -1.89 C
1036 10-02-2009 15:09:35 4.3 C 64 % -1.89 C
1037 10-02-2009 15:21:35 4.2 C 64 % -1.99 C
1038 10-02-2009 15:33:35 4.1 C 61 % -2.73 C
1039 10-02-2009 15:45:34 3.7 C 62 % -2.89 C
1040 10-02-2009 15:57:34 3.7 C 63 % -2.68 C
1041 10-02-2009 16:09:34 3.3 C 66 % -2.43 C
1042 10-02-2009 16:21:35 2.7 C 73 % -1.64 C
1043 10-02-2009 16:33:34 2.1 C 79 % -1.15 C
1044 10-02-2009 16:45:34 1.9 C 83 % -0.67 C
1045 10-02-2009 16:57:34 1.9 C 84 % -0.51 C
1046 10-02-2009 17:09:34 1.9 C 84 % -0.51 C
1047 10-02-2009 17:21:34 2 C 83 % -0.58 C
1048 10-02-2009 17:33:33 2 C 82 % -0.74 C
1049 10-02-2009 17:45:34 2.1 C 83 % -0.48 C
1050 10-02-2009 17:57:34 2.1 C 84 % -0.31 C
Sensor: Nr:Datum:Temp:Feuchte:Taupunkt:
Aussen-T/F 1051 10-02-2009 18:09:33 2.2 C 83 % -0.38 C
1052 10-02-2009 18:21:33 2.3 C 82 % -0.45 C
1053 10-02-2009 18:33:33 2.5 C 79 % -0.76 C
1054 10-02-2009 18:45:33 2.5 C 79 % -0.76 C
1055 10-02-2009 18:57:33 2.6 C 78 % -0.84 C
1056 10-02-2009 19:09:33 2.5 C 78 % -0.94 C
1057 10-02-2009 19:21:32 2.6 C 77 % -1.02 C
1058 10-02-2009 19:33:33 2.6 C 77 % -1.02 C
1059 10-02-2009 19:45:32 2.5 C 77 % -1.11 C
1060 10-02-2009 19:57:32 2.4 C 79 % -0.86 C
1061 10-02-2009 20:09:32 2.6 C 77 % -1.02 C
1062 10-02-2009 20:21:32 2.9 C 73 % -1.45 C
1063 10-02-2009 20:33:32 2.9 C 70 % -2.02 C
1064 10-02-2009 20:45:32 3 C 67 % -2.51 C
1065 10-02-2009 20:57:32 3 C 66 % -2.72 C
1066 10-02-2009 21:09:31 3.1 C 66 % -2.62 C
1067 10-02-2009 21:22:32 3 C 66 % -2.72 C
1068 10-02-2009 21:34:32 3.1 C 65 % -2.83 C
1069 10-02-2009 21:46:32 2.7 C 69 % -2.4 C
1070 10-02-2009 21:58:32 2.1 C 76 % -1.68 C
1071 10-02-2009 22:10:32 2 C 80 % -1.08 C
1072 10-02-2009 22:22:32 2.1 C 79 % -1.15 C
1073 10-02-2009 22:34:32 2.1 C 78 % -1.33 C
1074 10-02-2009 22:46:32 2.3 C 76 % -1.48 C
1075 10-02-2009 22:58:32 2.4 C 74 % -1.75 C
Sensor: Nr:Datum:Temp:Feuchte:Taupunkt:
Aussen-T/F 1076 10-02-2009 23:10:32 2.5 C 71 % -2.21 C
1077 10-02-2009 23:22:32 2.6 C 71 % -2.12 C
1078 10-02-2009 23:34:32 2.8 C 69 % -2.31 C
1079 10-02-2009 23:46:32 2.8 C 68 % -2.51 C
1080 10-02-2009 23:58:32 2.8 C 67 % -2.7 C
1081 11-02-2009 00:10:32 2.9 C 66 % -2.81 C
1082 11-02-2009 00:22:32 2.8 C 65 % -3.11 C
1083 11-02-2009 00:34:32 2.8 C 65 % -3.11 C
1084 11-02-2009 00:46:32 2.8 C 65 % -3.11 C
1085 11-02-2009 00:58:32 2.7 C 64 % -3.41 C
1086 11-02-2009 01:10:33 2.7 C 63 % -3.62 C
1087 11-02-2009 01:22:33 2.6 C 64 % -3.51 C
1088 11-02-2009 01:34:33 2.5 C 63 % -3.81 C
1089 11-02-2009 01:46:33 2.4 C 62 % -4.12 C
1090 11-02-2009 01:58:33 2.5 C 63 % -3.81 C
1091 11-02-2009 02:10:33 2.5 C 64 % -3.6 C
1092 11-02-2009 02:22:33 2.5 C 66 % -3.19 C
1093 11-02-2009 02:34:33 2.6 C 66 % -3.1 C
1094 11-02-2009 02:46:33 2.5 C 65 % -3.4 C
1095 11-02-2009 02:58:33 2.3 C 65 % -3.59 C
1096 11-02-2009 03:10:33 2.3 C 66 % -3.38 C
1097 11-02-2009 03:22:33 2.2 C 66 % -3.48 C
1098 11-02-2009 03:34:33 2.3 C 68 % -2.98 C
1099 11-02-2009 03:46:33 2.4 C 67 % -3.09 C
1100 11-02-2009 03:58:33 2.5 C 67 % -2.99 C
Sensor: Nr:Datum:Temp:Feuchte:Taupunkt:
Aussen-T/F 1101 11-02-2009 04:10:33 2.4 C 68 % -2.89 C
1102 11-02-2009 04:22:33 2.3 C 69 % -2.79 C
1103 11-02-2009 04:34:33 2.2 C 71 % -2.5 C
1104 11-02-2009 04:46:33 2.2 C 72 % -2.31 C
1105 11-02-2009 04:58:34 2.2 C 72 % -2.31 C
1106 11-02-2009 05:10:34 2.2 C 71 % -2.5 C
1107 11-02-2009 05:22:34 2.2 C 70 % -2.69 C
1108 11-02-2009 05:34:34 2.1 C 70 % -2.79 C
1109 11-02-2009 05:46:34 2.2 C 69 % -2.88 C
1110 11-02-2009 05:58:34 2.1 C 69 % -2.98 C
1111 11-02-2009 06:10:34 2.1 C 69 % -2.98 C
1112 11-02-2009 06:22:34 2.2 C 67 % -3.28 C
1113 11-02-2009 06:34:34 2.2 C 66 % -3.48 C
1114 11-02-2009 06:46:34 2.1 C 67 % -3.37 C
1115 11-02-2009 06:58:34 2.1 C 67 % -3.37 C
1116 11-02-2009 07:10:32 2 C 67 % -3.47 C
1117 11-02-2009 07:22:32 2.1 C 66 % -3.57 C
1118 11-02-2009 07:34:32 2.1 C 65 % -3.78 C
1119 11-02-2009 07:46:32 2 C 65 % -3.87 C
1120 11-02-2009 07:58:32 2 C 65 % -3.87 C
1121 11-02-2009 08:10:31 2 C 64 % -4.08 C
1122 11-02-2009 08:22:32 2.1 C 65 % -3.78 C
1123 11-02-2009 08:34:31 2 C 64 % -4.08 C
1124 11-02-2009 08:46:31 1.7 C 66 % -3.95 C
1125 11-02-2009 08:58:31 1.7 C 66 % -3.95 C
Sensor: Nr:Datum:Temp:Feuchte:Taupunkt:
Aussen-T/F 1126 11-02-2009 09:10:31 1.9 C 67 % -3.56 C
1127 11-02-2009 09:22:31 1.8 C 66 % -3.86 C
1128 11-02-2009 09:34:31 1.8 C 66 % -3.86 C
1129 11-02-2009 09:46:31 1.7 C 67 % -3.75 C
1130 11-02-2009 09:58:31 2.4 C 65 % -3.49 C
1131 11-02-2009 10:10:31 2.9 C 62 % -3.65 C
1132 11-02-2009 10:22:30 3 C 59 % -4.21 C
1133 11-02-2009 10:34:30 3.2 C 57 % -4.48 C
1134 11-02-2009 10:46:30 3.2 C 56 % -4.71 C
1135 11-02-2009 10:58:30 3.7 C 55 % -4.49 C
1136 11-02-2009 11:10:30 3.8 C 53 % -4.88 C
1137 11-02-2009 11:22:29 3.8 C 52 % -5.13 C
1138 11-02-2009 11:34:30 4 C 48 % -6 C
1139 11-02-2009 11:46:29 4.5 C 46 % -6.09 C
1140 11-02-2009 11:58:29 4.6 C 43 % -6.88 C
1141 11-02-2009 12:10:29 4.6 C 43 % -6.88 C
1142 11-02-2009 12:22:29 4.5 C 42 % -7.27 C
1143 11-02-2009 12:34:29 3.6 C 51 % -5.57 C
1144 11-02-2009 12:46:29 3.7 C 56 % -4.25 C
1145 11-02-2009 12:58:29 3.4 C 56 % -4.53 C
1146 11-02-2009 13:10:28 3.3 C 60 % -3.71 C
1147 11-02-2009 13:22:29 3.6 C 64 % -2.56 C
1148 11-02-2009 13:34:28 3.7 C 63 % -2.68 C
1149 11-02-2009 13:46:28 3.7 C 59 % -3.55 C
1150 11-02-2009 13:58:28 4.4 C 56 % -3.59 C
Sensor: Nr:Datum:Temp:Feuchte:Taupunkt:
Aussen-T/F 1151 11-02-2009 14:10:28 5.2 C 44 % -6.04 C
1152 11-02-2009 14:22:28 6.5 C 36 % -7.47 C
1153 11-02-2009 14:34:28 6.2 C 35 % -8.1 C
1154 11-02-2009 14:46:28 5.9 C 32 % -9.5 C
1155 11-02-2009 14:58:28 5.6 C 30 % -10.58 C
1156 11-02-2009 15:10:28 5.6 C 32 % -9.77 C
1157 11-02-2009 15:22:27 5.3 C 31 % -10.43 C
1158 11-02-2009 15:34:27 5 C 36 % -8.8 C
1159 11-02-2009 15:46:27 4.7 C 41 % -7.4 C
1160 11-02-2009 15:58:27 4.6 C 41 % -7.49 C
1161 11-02-2009 16:10:27 4.6 C 41 % -7.49 C
1162 11-02-2009 16:22:26 4.3 C 42 % -7.46 C
1163 11-02-2009 16:34:27 4.2 C 43 % -7.24 C
1164 11-02-2009 16:46:26 4 C 45 % -6.84 C
1165 11-02-2009 16:58:26 3.8 C 48 % -6.18 C
1166 11-02-2009 17:10:26 3.7 C 50 % -5.74 C
1167 11-02-2009 17:22:27 3.6 C 50 % -5.83 C
1168 11-02-2009 17:34:26 3.5 C 52 % -5.41 C
1169 11-02-2009 17:46:26 3.4 C 52 % -5.5 C
1170 11-02-2009 17:58:26 3.4 C 53 % -5.25 C
1171 11-02-2009 18:10:26 3.4 C 55 % -4.77 C
1172 11-02-2009 18:22:26 3.2 C 56 % -4.71 C
1173 11-02-2009 18:34:25 3.1 C 58 % -4.34 C
1174 11-02-2009 18:46:26 3.1 C 58 % -4.34 C
1175 11-02-2009 18:58:26 3 C 58 % -4.44 C
Sensor: Nr:Datum:Temp:Feuchte:Taupunkt:
Aussen-T/F 1176 11-02-2009 19:10:25 2.9 C 60 % -4.08 C
1177 11-02-2009 19:22:25 2.9 C 60 % -4.08 C
1178 11-02-2009 19:34:25 3 C 58 % -4.44 C
1179 11-02-2009 19:46:25 3 C 58 % -4.44 C
1180 11-02-2009 19:58:25 3 C 58 % -4.44 C
1181 11-02-2009 20:10:25 2.9 C 59 % -4.31 C
1182 11-02-2009 20:22:24 2.9 C 60 % -4.08 C
1183 11-02-2009 20:34:25 2.8 C 60 % -4.18 C
1184 11-02-2009 20:46:24 2.8 C 61 % -3.96 C
1185 11-02-2009 20:58:24 2.6 C 63 % -3.72 C
1186 11-02-2009 21:10:24 2.4 C 68 % -2.89 C
1187 11-02-2009 21:23:26 2.2 C 70 % -2.69 C
1188 11-02-2009 21:35:26 2.1 C 71 % -2.6 C
1189 11-02-2009 21:47:26 1.8 C 75 % -2.15 C
1190 11-02-2009 21:59:26 1.6 C 79 % -1.64 C
1191 11-02-2009 22:11:26 1.5 C 81 % -1.4 C
1192 11-02-2009 22:23:26 1.1 C 84 % -1.29 C
1193 11-02-2009 22:35:26 1.1 C 86 % -0.97 C
1194 11-02-2009 22:47:26 1 C 87 % -0.91 C
1195 11-02-2009 22:59:26 1.1 C 88 % -0.66 C
1196 11-02-2009 23:11:26 1.3 C 89 % -0.31 C
1197 11-02-2009 23:23:26 1.3 C 89 % -0.31 C
1198 11-02-2009 23:35:26 1.3 C 88 % -0.46 C
1199 11-02-2009 23:47:26 1.4 C 88 % -0.36 C
1200 11-02-2009 23:59:26 1.4 C 86 % -0.68 C
Sensor: Nr:Datum:Temp:Feuchte:Taupunkt:
Aussen-T/F 1201 12-02-2009 00:11:26 1.3 C 86 % -0.78 C
1202 12-02-2009 00:23:26 1 C 86 % -1.07 C
1203 12-02-2009 00:35:27 1.1 C 86 % -0.97 C
1204 12-02-2009 00:47:27 1.2 C 85 % -1.03 C
1205 12-02-2009 00:59:27 1.1 C 84 % -1.29 C
1206 12-02-2009 01:11:27 1 C 84 % -1.39 C
1207 12-02-2009 01:23:27 1 C 85 % -1.23 C
1208 12-02-2009 01:35:27 1 C 84 % -1.39 C
1209 12-02-2009 01:47:27 1.1 C 82 % -1.62 C
1210 12-02-2009 01:59:27 1.2 C 80 % -1.86 C
1211 12-02-2009 02:11:27 1.1 C 79 % -2.12 C
1212 12-02-2009 02:23:27 1.1 C 79 % -2.12 C
1213 12-02-2009 02:35:27 1.1 C 79 % -2.12 C
1214 12-02-2009 02:47:27 1.1 C 79 % -2.12 C
1215 12-02-2009 02:59:27 0.8 C 81 % -2.08 C
1216 12-02-2009 03:11:27 0.8 C 82 % -1.91 C
1217 12-02-2009 03:23:27 0.8 C 84 % -1.59 C
1218 12-02-2009 03:35:27 0.8 C 84 % -1.59 C
1219 12-02-2009 03:47:27 1 C 81 % -1.88 C
1220 12-02-2009 03:59:27 1 C 77 % -2.57 C
1221 12-02-2009 04:11:27 0.6 C 76 % -3.13 C
1222 12-02-2009 04:23:27 0.5 C 76 % -3.23 C
1223 12-02-2009 04:35:28 0.2 C 76 % -3.52 C
1224 12-02-2009 04:47:28 -0.1 C 75 % -3.99 C
1225 12-02-2009 04:59:28 -0.4 C 76 % -4.1 C
Sensor: Nr:Datum:Temp:Feuchte:Taupunkt:
Aussen-T/F 1226 12-02-2009 05:11:28 -0.5 C 75 % -4.38 C
1227 12-02-2009 05:23:28 -0.6 C 75 % -4.47 C
1228 12-02-2009 05:35:28 -0.8 C 75 % -4.67 C
1229 12-02-2009 05:47:28 -0.7 C 75 % -4.57 C
1230 12-02-2009 05:59:28 -0.7 C 75 % -4.57 C
1231 12-02-2009 06:11:28 -0.5 C 73 % -4.73 C
1232 12-02-2009 06:23:28 -0.5 C 73 % -4.73 C
1233 12-02-2009 06:35:28 -0.4 C 73 % -4.64 C
1234 12-02-2009 06:47:26 -0.3 C 73 % -4.54 C
1235 12-02-2009 06:59:26 -0.4 C 73 % -4.64 C
1236 12-02-2009 07:11:25 -0.3 C 75 % -4.18 C
1237 12-02-2009 07:23:25 -0.2 C 76 % -3.91 C
1238 12-02-2009 07:35:24 -0.2 C 76 % -3.91 C
1239 12-02-2009 07:47:25 -0.2 C 74 % -4.26 C
1240 12-02-2009 07:59:25 -0.1 C 75 % -3.99 C
1241 12-02-2009 08:11:24 0 C 75 % -3.89 C
1242 12-02-2009 08:23:24 0.1 C 75 % -3.79 C
1243 12-02-2009 08:35:25 0.1 C 74 % -3.97 C
1244 12-02-2009 08:47:24 0.1 C 74 % -3.97 C
1245 12-02-2009 08:59:24 0.2 C 74 % -3.87 C
1246 12-02-2009 09:11:24 0.4 C 73 % -3.86 C
1247 12-02-2009 09:23:24 0.4 C 74 % -3.68 C
1248 12-02-2009 09:35:24 0.6 C 74 % -3.49 C
1249 12-02-2009 09:47:23 0.8 C 75 % -3.11 C
1250 12-02-2009 09:59:23 1 C 73 % -3.28 C
Sensor: Nr:Datum:Temp:Feuchte:Taupunkt:
Aussen-T/F 1251 12-02-2009 10:11:23 0.9 C 74 % -3.2 C
1252 12-02-2009 10:23:23 1 C 74 % -3.1 C
1253 12-02-2009 10:35:23 1.3 C 71 % -3.36 C
1254 12-02-2009 10:47:22 1.4 C 70 % -3.46 C
1255 12-02-2009 10:59:22 1.6 C 68 % -3.65 C
1256 12-02-2009 11:11:23 1.8 C 66 % -3.86 C
1257 12-02-2009 11:23:23 2.1 C 65 % -3.78 C
1258 12-02-2009 11:35:22 1.7 C 66 % -3.95 C
1259 12-02-2009 11:47:23 1.6 C 68 % -3.65 C
1260 12-02-2009 11:59:23 2 C 63 % -4.29 C
1261 12-02-2009 12:11:22 2.4 C 57 % -5.23 C
1262 12-02-2009 12:23:22 2.5 C 59 % -4.68 C
1263 12-02-2009 12:35:21 2.6 C 61 % -4.15 C
1264 12-02-2009 12:47:22 2.9 C 57 % -4.76 C
1265 12-02-2009 12:59:22 3 C 60 % -3.99 C
1266 12-02-2009 13:11:21 3.6 C 58 % -3.87 C
1267 12-02-2009 13:23:21 3.6 C 56 % -4.34 C
1268 12-02-2009 13:35:22 2.7 C 58 % -4.72 C
1269 12-02-2009 13:47:21 1.4 C 68 % -3.84 C
1270 12-02-2009 13:59:21 1 C 75 % -2.92 C
1271 12-02-2009 14:11:21 0.9 C 79 % -2.32 C
1272 12-02-2009 14:23:21 1.9 C 79 % -1.35 C
1273 12-02-2009 14:35:21 2.1 C 74 % -2.04 C
1274 12-02-2009 14:47:20 2.5 C 72 % -2.02 C
1275 12-02-2009 14:59:20 2.4 C 71 % -2.31 C
Sensor: Nr:Datum:Temp:Feuchte:Taupunkt:
Aussen-T/F 1276 12-02-2009 15:11:21 2.2 C 70 % -2.69 C
1277 12-02-2009 15:23:21 1.8 C 72 % -2.7 C
1278 12-02-2009 15:35:20 2.6 C 72 % -1.93 C
1279 12-02-2009 15:47:20 2.7 C 68 % -2.6 C
1280 12-02-2009 15:59:20 2.6 C 67 % -2.9 C
1281 12-02-2009 16:11:20 3.2 C 63 % -3.15 C
1282 12-02-2009 16:23:20 3.1 C 61 % -3.67 C
1283 12-02-2009 16:35:19 2.8 C 62 % -3.74 C
1284 12-02-2009 16:47:20 2.3 C 64 % -3.79 C
1285 12-02-2009 16:59:20 1.2 C 71 % -3.46 C
1286 12-02-2009 17:11:19 0.9 C 76 % -2.84 C
1287 12-02-2009 17:23:19 0.8 C 78 % -2.59 C
1288 12-02-2009 17:35:19 0.6 C 80 % -2.44 C
1289 12-02-2009 17:47:19 0.3 C 82 % -2.4 C
1290 12-02-2009 17:59:19 0.2 C 84 % -2.18 C
1291 12-02-2009 18:11:19 0.1 C 85 % -2.11 C
1292 12-02-2009 18:23:18 0.1 C 85 % -2.11 C
1293 12-02-2009 18:35:19 0.1 C 85 % -2.11 C
1294 12-02-2009 18:47:18 0 C 85 % -2.21 C
1295 12-02-2009 18:59:18 0 C 86 % -2.05 C
1296 12-02-2009 19:11:18 0.1 C 86 % -1.96 C
1297 12-02-2009 19:23:18 0.1 C 86 % -1.96 C
1298 12-02-2009 19:35:18 0.2 C 87 % -1.7 C
1299 12-02-2009 19:47:17 0.1 C 87 % -1.8 C
1300 12-02-2009 19:59:17 -0.2 C 87 % -2.1 C
Sensor: Nr:Datum:Temp:Feuchte:Taupunkt:
Aussen-T/F 1301 12-02-2009 20:11:18 -0.3 C 87 % -2.2 C
1302 12-02-2009 20:23:18 -0.4 C 87 % -2.29 C
1303 12-02-2009 20:35:17 -0.6 C 87 % -2.49 C
1304 12-02-2009 20:47:18 -0.5 C 86 % -2.55 C
1305 12-02-2009 20:59:18 -0.4 C 86 % -2.45 C
1306 12-02-2009 21:11:17 -0.5 C 86 % -2.55 C
1307 12-02-2009 21:23:17 -0.6 C 86 % -2.65 C
1308 12-02-2009 21:35:16 -0.7 C 86 % -2.74 C
1309 12-02-2009 21:47:17 -0.7 C 86 % -2.74 C
1310 12-02-2009 21:59:17 -0.6 C 87 % -2.49 C
1311 12-02-2009 22:11:16 -0.6 C 87 % -2.49 C
1312 12-02-2009 22:23:16 -0.5 C 87 % -2.39 C
1313 12-02-2009 22:36:17 -0.7 C 87 % -2.59 C
1314 12-02-2009 22:48:17 -1 C 87 % -2.88 C
1315 12-02-2009 23:00:17 -1.3 C 86 % -3.33 C
1316 12-02-2009 23:12:17 -1.5 C 87 % -3.38 C
1317 12-02-2009 23:24:17 -1.6 C 87 % -3.48 C
1318 12-02-2009 23:36:17 -1.5 C 87 % -3.38 C
1319 12-02-2009 23:48:17 -1.5 C 88 % -3.22 C
1320 13-02-2009 00:00:17 -1.5 C 88 % -3.22 C
1321 13-02-2009 00:12:17 -1.6 C 88 % -3.32 C
1322 13-02-2009 00:24:17 -1.2 C 89 % -2.78 C
1323 13-02-2009 00:36:17 -1.1 C 89 % -2.68 C
1324 13-02-2009 00:48:18 -1 C 89 % -2.58 C
1325 13-02-2009 01:00:18 -0.9 C 89 % -2.48 C
Sensor: Nr:Datum:Temp:Feuchte:Taupunkt:
Aussen-T/F 1326 13-02-2009 01:12:18 -0.7 C 89 % -2.28 C
1327 13-02-2009 01:24:18 -0.5 C 89 % -2.09 C
1328 13-02-2009 01:36:18 -0.4 C 89 % -1.99 C
1329 13-02-2009 01:48:18 -0.4 C 89 % -1.99 C
1330 13-02-2009 02:00:18 -0.4 C 89 % -1.99 C
1331 13-02-2009 02:12:18 -0.3 C 89 % -1.89 C
1332 13-02-2009 02:24:18 -0.3 C 89 % -1.89 C
1333 13-02-2009 02:36:18 -0.3 C 89 % -1.89 C
1334 13-02-2009 02:48:18 -0.2 C 89 % -1.79 C
1335 13-02-2009 03:00:18 -0.3 C 88 % -2.04 C
1336 13-02-2009 03:12:18 -0.3 C 88 % -2.04 C
1337 13-02-2009 03:24:18 -0.3 C 88 % -2.04 C
1338 13-02-2009 03:36:18 -0.3 C 88 % -2.04 C
1339 13-02-2009 03:48:18 -0.3 C 88 % -2.04 C
1340 13-02-2009 04:00:18 -0.3 C 88 % -2.04 C
1341 13-02-2009 04:12:18 -0.3 C 88 % -2.04 C
1342 13-02-2009 04:24:18 -0.4 C 87 % -2.29 C
1343 13-02-2009 04:36:19 -0.4 C 87 % -2.29 C
1344 13-02-2009 04:48:19 -0.4 C 87 % -2.29 C
1345 13-02-2009 05:00:19 -0.4 C 87 % -2.29 C
1346 13-02-2009 05:12:19 -0.5 C 86 % -2.55 C
1347 13-02-2009 05:24:19 -0.6 C 86 % -2.65 C
1348 13-02-2009 05:36:19 -0.6 C 85 % -2.8 C
1349 13-02-2009 05:48:19 -0.5 C 85 % -2.71 C
1350 13-02-2009 06:00:19 -0.4 C 84 % -2.77 C
Sensor: Nr:Datum:Temp:Feuchte:Taupunkt:
Aussen-T/F 1351 13-02-2009 06:12:19 -0.4 C 84 % -2.77 C
1352 13-02-2009 06:24:19 -0.3 C 83 % -2.83 C
1353 13-02-2009 06:36:19 -0.4 C 83 % -2.93 C
1354 13-02-2009 06:48:19 -0.4 C 82 % -3.09 C
1355 13-02-2009 07:00:08 -0.4 C 82 % -3.09 C
1356 13-02-2009 07:12:17 -0.5 C 82 % -3.19 C
1357 13-02-2009 07:24:18 -0.5 C 82 % -3.19 C
1358 13-02-2009 07:36:17 -0.5 C 83 % -3.03 C
1359 13-02-2009 07:48:17 -0.5 C 82 % -3.19 C
1360 13-02-2009 08:00:16 -0.5 C 82 % -3.19 C
1361 13-02-2009 08:12:16 -0.5 C 82 % -3.19 C
1362 13-02-2009 08:24:17 -0.5 C 82 % -3.19 C
1363 13-02-2009 08:36:16 -0.5 C 82 % -3.19 C
1364 13-02-2009 08:48:16 -0.4 C 82 % -3.09 C
1365 13-02-2009 09:00:16 -0.4 C 82 % -3.09 C
1366 13-02-2009 09:12:16 -0.3 C 81 % -3.16 C
1367 13-02-2009 09:24:16 -0.1 C 81 % -2.96 C
1368 13-02-2009 09:36:16 0.1 C 80 % -2.93 C
1369 13-02-2009 09:48:16 0.1 C 80 % -2.93 C
1370 13-02-2009 10:00:15 0.1 C 79 % -3.1 C
1371 13-02-2009 10:12:15 0.2 C 79 % -3 C
1372 13-02-2009 10:24:16 0.4 C 79 % -2.81 C
1373 13-02-2009 10:36:15 0.4 C 78 % -2.98 C
1374 13-02-2009 10:48:15 0.5 C 78 % -2.88 C
1375 13-02-2009 11:00:15 0.6 C 78 % -2.78 C
Sensor: Nr:Datum:Temp:Feuchte:Taupunkt:
Aussen-T/F 1376 13-02-2009 11:12:15 0.7 C 78 % -2.69 C
1377 13-02-2009 11:24:15 0.9 C 78 % -2.49 C
1378 13-02-2009 11:36:15 1.1 C 77 % -2.47 C
1379 13-02-2009 11:48:15 1.2 C 76 % -2.55 C
1380 13-02-2009 12:00:15 1.3 C 77 % -2.28 C
1381 13-02-2009 12:12:15 1.4 C 77 % -2.18 C
1382 13-02-2009 12:24:14 1.6 C 76 % -2.16 C
1383 13-02-2009 12:36:14 1.8 C 75 % -2.15 C
1384 13-02-2009 12:48:14 1.8 C 74 % -2.33 C
1385 13-02-2009 13:00:14 1.8 C 75 % -2.15 C
1386 13-02-2009 13:12:14 1.7 C 76 % -2.07 C
1387 13-02-2009 13:24:13 1.5 C 78 % -1.91 C
1388 13-02-2009 13:36:14 1.7 C 79 % -1.54 C
1389 13-02-2009 13:48:13 1.8 C 78 % -1.62 C
1390 13-02-2009 14:00:13 2.1 C 76 % -1.68 C
1391 13-02-2009 14:12:13 2.3 C 75 % -1.66 C
1392 13-02-2009 14:24:14 2.3 C 75 % -1.66 C
1393 13-02-2009 14:36:13 2.3 C 75 % -1.66 C
1394 13-02-2009 14:48:13 2.4 C 75 % -1.57 C
1395 13-02-2009 15:00:12 2.2 C 76 % -1.58 C
1396 13-02-2009 15:12:12 2.2 C 77 % -1.4 C
1397 13-02-2009 15:24:13 2 C 77 % -1.6 C
1398 13-02-2009 15:36:12 2 C 79 % -1.25 C
1399 13-02-2009 15:48:12 2 C 79 % -1.25 C
1400 13-02-2009 16:00:12 1.8 C 79 % -1.44 C
Sensor: Nr:Datum:Temp:Feuchte:Taupunkt:
Aussen-T/F 1401 13-02-2009 16:12:12 1.7 C 79 % -1.54 C
1402 13-02-2009 16:24:12 1.7 C 79 % -1.54 C
1403 13-02-2009 16:36:12 1.5 C 79 % -1.74 C
1404 13-02-2009 16:48:12 1.4 C 80 % -1.66 C
1405 13-02-2009 17:00:12 1.4 C 81 % -1.49 C
1406 13-02-2009 17:12:12 1.4 C 80 % -1.66 C
1407 13-02-2009 17:24:11 1.4 C 80 % -1.66 C
1408 13-02-2009 17:36:12 1.2 C 79 % -2.03 C
1409 13-02-2009 17:48:11 1.2 C 79 % -2.03 C
1410 13-02-2009 18:00:11 1.2 C 78 % -2.2 C
1411 13-02-2009 18:12:11 1.2 C 77 % -2.37 C
1412 13-02-2009 18:24:11 1.2 C 77 % -2.37 C
1413 13-02-2009 18:36:11 1.2 C 76 % -2.55 C
1414 13-02-2009 18:48:10 1.3 C 74 % -2.81 C
1415 13-02-2009 19:00:10 1.4 C 72 % -3.08 C
1416 13-02-2009 19:12:10 1.4 C 72 % -3.08 C
1417 13-02-2009 19:24:11 1.2 C 71 % -3.46 C
1418 13-02-2009 19:36:10 1.3 C 69 % -3.75 C
1419 13-02-2009 19:48:10 1.2 C 68 % -4.04 C
1420 13-02-2009 20:00:10 1.2 C 68 % -4.04 C
1421 13-02-2009 20:12:10 1.1 C 69 % -3.94 C
1422 13-02-2009 20:24:10 1 C 70 % -3.84 C
1423 13-02-2009 20:36:10 1 C 72 % -3.47 C
1424 13-02-2009 20:48:09 0.9 C 74 % -3.2 C
1425 13-02-2009 21:00:09 0.9 C 73 % -3.38 C
Sensor: Nr:Datum:Temp:Feuchte:Taupunkt:
Aussen-T/F 1426 13-02-2009 21:12:09 1 C 72 % -3.47 C
1427 13-02-2009 21:24:09 0.9 C 74 % -3.2 C
1428 13-02-2009 21:36:09 0.7 C 78 % -2.69 C
1429 13-02-2009 21:48:08 0.6 C 80 % -2.44 C
1430 13-02-2009 22:01:09 0.6 C 81 % -2.28 C
1431 13-02-2009 22:13:09 0.6 C 82 % -2.11 C
1432 13-02-2009 22:25:09 0.4 C 83 % -2.14 C
1433 13-02-2009 22:37:09 0.4 C 85 % -1.82 C
1434 13-02-2009 22:49:09 0.4 C 85 % -1.82 C
1435 13-02-2009 23:01:10 0.4 C 86 % -1.66 C
1436 13-02-2009 23:13:10 0.4 C 86 % -1.66 C
1437 13-02-2009 23:25:10 0.4 C 86 % -1.66 C
1438 13-02-2009 23:37:10 0.5 C 86 % -1.56 C
1439 13-02-2009 23:49:10 0.6 C 85 % -1.62 C
1440 14-02-2009 00:01:10 0.4 C 84 % -1.98 C
1441 14-02-2009 00:13:10 0.4 C 84 % -1.98 C
1442 14-02-2009 00:25:10 0.5 C 84 % -1.88 C
1443 14-02-2009 00:37:10 0.6 C 83 % -1.95 C
1444 14-02-2009 00:49:10 0.5 C 83 % -2.04 C
1445 14-02-2009 01:01:10 0.5 C 83 % -2.04 C
1446 14-02-2009 01:13:10 0.5 C 83 % -2.04 C
1447 14-02-2009 01:25:10 0.4 C 83 % -2.14 C
1448 14-02-2009 01:37:10 0.5 C 82 % -2.21 C
1449 14-02-2009 01:49:10 0.5 C 81 % -2.37 C
1450 14-02-2009 02:01:10 0.6 C 80 % -2.44 C
Sensor: Nr:Datum:Temp:Feuchte:Taupunkt:
Aussen-T/F 1451 14-02-2009 02:13:10 0.5 C 79 % -2.71 C
1452 14-02-2009 02:25:10 0.3 C 81 % -2.57 C
1453 14-02-2009 02:37:10 0.2 C 83 % -2.34 C
1454 14-02-2009 02:49:11 0.2 C 85 % -2.02 C
1455 14-02-2009 03:01:11 0.2 C 85 % -2.02 C
1456 14-02-2009 03:13:11 0.3 C 85 % -1.92 C
1457 14-02-2009 03:25:11 0.2 C 85 % -2.02 C
1458 14-02-2009 03:37:11 0.1 C 85 % -2.11 C
1459 14-02-2009 03:49:11 0.1 C 86 % -1.96 C
1460 14-02-2009 04:01:11 0.2 C 86 % -1.86 C
1461 14-02-2009 04:13:11 0.2 C 87 % -1.7 C
1462 14-02-2009 04:25:11 0.2 C 87 % -1.7 C
1463 14-02-2009 04:37:11 0.2 C 88 % -1.55 C
1464 14-02-2009 04:49:11 0.2 C 88 % -1.55 C
1465 14-02-2009 05:01:11 0.2 C 88 % -1.55 C
1466 14-02-2009 05:13:11 0.1 C 88 % -1.65 C
1467 14-02-2009 05:25:11 0.2 C 88 % -1.55 C
1468 14-02-2009 05:37:11 0.2 C 88 % -1.55 C
1469 14-02-2009 05:49:11 0.2 C 88 % -1.55 C
1470 14-02-2009 06:01:11 0.2 C 88 % -1.55 C
1471 14-02-2009 06:13:11 0.2 C 87 % -1.7 C
1472 14-02-2009 06:25:11 0.2 C 87 % -1.7 C
1473 14-02-2009 06:37:12 0.2 C 86 % -1.86 C
1474 14-02-2009 06:49:12 0.2 C 86 % -1.86 C
1475 14-02-2009 07:01:12 0.2 C 86 % -1.86 C
Sensor: Nr:Datum:Temp:Feuchte:Taupunkt:
Aussen-T/F 1476 14-02-2009 07:13:12 0.1 C 86 % -1.96 C
1477 14-02-2009 07:25:12 0.1 C 86 % -1.96 C
1478 14-02-2009 07:37:12 0.2 C 86 % -1.86 C
1479 14-02-2009 07:49:10 0.3 C 86 % -1.76 C
1480 14-02-2009 08:01:09 0.4 C 85 % -1.82 C
1481 14-02-2009 08:13:09 0.5 C 83 % -2.04 C
1482 14-02-2009 08:25:09 0.4 C 82 % -2.3 C
1483 14-02-2009 08:37:09 0.3 C 80 % -2.73 C
1484 14-02-2009 08:49:09 0.2 C 79 % -3 C
1485 14-02-2009 09:01:08 0.2 C 78 % -3.17 C
1486 14-02-2009 09:13:08 0.2 C 78 % -3.17 C
1487 14-02-2009 09:25:08 0.4 C 78 % -2.98 C
1488 14-02-2009 09:37:09 0.3 C 78 % -3.07 C
1489 14-02-2009 09:49:08 0.3 C 78 % -3.07 C
1490 14-02-2009 10:01:08 0.4 C 77 % -3.15 C
1491 14-02-2009 10:13:08 0.2 C 75 % -3.69 C
1492 14-02-2009 10:25:08 0.1 C 74 % -3.97 C
1493 14-02-2009 10:37:08 0.3 C 72 % -4.14 C
1494 14-02-2009 10:49:07 0.6 C 70 % -4.23 C
1495 14-02-2009 11:01:08 0.8 C 66 % -4.81 C
1496 14-02-2009 11:13:08 0.6 C 67 % -4.81 C
1497 14-02-2009 11:25:07 0.9 C 67 % -4.52 C
1498 14-02-2009 11:37:07 0.8 C 64 % -5.22 C
1499 14-02-2009 11:49:07 0.8 C 63 % -5.42 C
1500 14-02-2009 12:01:07 0.9 C 61 % -5.75 C
Sensor: Nr:Datum:Temp:Feuchte:Taupunkt:
Aussen-T/F 1501 14-02-2009 12:13:07 0.9 C 62 % -5.54 C
1502 14-02-2009 12:25:07 1.4 C 59 % -5.72 C
1503 14-02-2009 12:37:06 1.5 C 57 % -6.07 C
1504 14-02-2009 12:49:07 2 C 55 % -6.07 C
1505 14-02-2009 13:01:06 1.8 C 52 % -6.99 C
1506 14-02-2009 13:13:06 2.4 C 51 % -6.68 C
1507 14-02-2009 13:25:06 2.6 C 49 % -7.02 C
1508 14-02-2009 13:37:06 2.9 C 46 % -7.56 C
1509 14-02-2009 13:49:06 3.1 C 44 % -7.95 C
1510 14-02-2009 14:01:05 3.4 C 42 % -8.27 C
1511 14-02-2009 14:13:05 3.7 C 41 % -8.31 C
1512 14-02-2009 14:25:06 3.7 C 42 % -8 C
1513 14-02-2009 14:37:06 3.8 C 43 % -7.61 C
1514 14-02-2009 14:49:05 3.6 C 44 % -7.49 C
1515 14-02-2009 15:01:06 4.1 C 42 % -7.64 C
1516 14-02-2009 15:13:06 4.2 C 40 % -8.17 C
1517 14-02-2009 15:25:05 3.6 C 43 % -7.79 C
1518 14-02-2009 15:37:05 3.3 C 44 % -7.76 C
1519 14-02-2009 15:49:05 2.9 C 45 % -7.84 C
1520 14-02-2009 16:01:05 2.9 C 45 % -7.84 C
1521 14-02-2009 16:13:05 3.2 C 44 % -7.85 C
1522 14-02-2009 16:25:04 3.3 C 41 % -8.67 C
1523 14-02-2009 16:37:04 3.9 C 42 % -7.82 C
1524 14-02-2009 16:49:04 3.9 C 39 % -8.77 C
1525 14-02-2009 17:01:04 3.3 C 40 % -8.98 C
Sensor: Nr:Datum:Temp:Feuchte:Taupunkt:
Aussen-T/F 1526 14-02-2009 17:13:04 2.6 C 44 % -8.4 C
1527 14-02-2009 17:25:04 2.2 C 46 % -8.2 C
1528 14-02-2009 17:37:04 1.5 C 47 % -8.56 C
1529 14-02-2009 17:49:04 0.8 C 49 % -8.68 C
1530 14-02-2009 18:01:03 0.4 C 52 % -8.29 C
1531 14-02-2009 18:13:03 0.2 C 52 % -8.47 C
1532 14-02-2009 18:25:04 0.2 C 50 % -8.97 C
1533 14-02-2009 18:37:03 -0.1 C 50 % -9.26 C
1534 14-02-2009 18:49:03 -0.3 C 51 % -9.2 C
1535 14-02-2009 19:01:03 -0.3 C 51 % -9.2 C
1536 14-02-2009 19:13:03 -0.8 C 54 % -8.93 C
1537 14-02-2009 19:25:03 -0.9 C 56 % -8.56 C
1538 14-02-2009 19:37:03 -1 C 59 % -7.99 C
1539 14-02-2009 19:49:03 -1.2 C 60 % -7.96 C
1540 14-02-2009 20:01:03 -1.3 C 62 % -7.63 C
1541 14-02-2009 20:13:03 -1.4 C 63 % -7.52 C
1542 14-02-2009 20:25:02 -1.6 C 64 % -7.51 C
1543 14-02-2009 20:37:02 -1.8 C 65 % -7.5 C
1544 14-02-2009 20:49:02 -2 C 66 % -7.49 C
1545 14-02-2009 21:01:01 -2.1 C 66 % -7.59 C
1546 14-02-2009 21:13:01 -2.3 C 66 % -7.78 C
1547 14-02-2009 21:25:02 -2.4 C 67 % -7.68 C
1548 14-02-2009 21:37:02 -2.6 C 68 % -7.68 C
1549 14-02-2009 21:49:01 -2.3 C 70 % -7.02 C
1550 14-02-2009 22:01:02 -2.2 C 70 % -6.92 C
Sensor: Nr:Datum:Temp:Feuchte:Taupunkt:
Aussen-T/F 1551 14-02-2009 22:13:02 -2.3 C 70 % -7.02 C
1552 14-02-2009 22:25:01 -2.4 C 70 % -7.11 C
1553 14-02-2009 22:37:01 -2.3 C 71 % -6.83 C
1554 14-02-2009 22:49:01 -2.3 C 70 % -7.02 C
1555 14-02-2009 23:01:01 -2.2 C 70 % -6.92 C
1556 14-02-2009 23:13:02 -2.5 C 70 % -7.21 C
1557 14-02-2009 23:25:00 -2.6 C 70 % -7.31 C
1558 14-02-2009 23:37:00 -2.8 C 71 % -7.31 C
1559 14-02-2009 23:49:00 -2.9 C 71 % -7.41 C
1560 15-02-2009 00:01:00 -2.9 C 72 % -7.23 C
1561 15-02-2009 00:13:00 -3.1 C 72 % -7.42 C
1562 15-02-2009 00:25:00 -3.3 C 72 % -7.62 C
1563 15-02-2009 00:37:00 -3.5 C 72 % -7.81 C
1564 15-02-2009 00:49:59 -3.5 C 73 % -7.63 C
1565 15-02-2009 01:12:59 -3.6 C 74 % -7.55 C
1566 15-02-2009 01:13:00 -3.7 C 74 % -7.65 C
1567 15-02-2009 01:25:00 -3.8 C 74 % -7.75 C
1568 15-02-2009 01:37:59 -3.9 C 75 % -7.67 C
1569 15-02-2009 01:49:59 -4 C 75 % -7.77 C
1570 15-02-2009 02:01:59 -4 C 76 % -7.59 C
1571 15-02-2009 02:13:59 -4.1 C 76 % -7.69 C
1572 15-02-2009 02:26:00 -4.2 C 77 % -7.62 C
1573 15-02-2009 02:37:58 -4.2 C 77 % -7.62 C
1574 15-02-2009 02:51:01 -4.4 C 77 % -7.81 C
1575 15-02-2009 03:03:01 -4.5 C 77 % -7.91 C
Sensor: Nr:Datum:Temp:Feuchte:Taupunkt:
Aussen-T/F 1576 15-02-2009 03:15:01 -4.6 C 78 % -7.84 C
1577 15-02-2009 03:27:01 -4.7 C 78 % -7.94 C
1578 15-02-2009 03:39:01 -4.7 C 78 % -7.94 C
1579 15-02-2009 03:51:01 -4.8 C 78 % -8.04 C
1580 15-02-2009 04:03:02 -4.9 C 78 % -8.13 C
1581 15-02-2009 04:15:01 -5 C 78 % -8.23 C
1582 15-02-2009 04:27:01 -5.2 C 78 % -8.43 C
1583 15-02-2009 04:39:02 -5.2 C 78 % -8.43 C
1584 15-02-2009 04:51:02 -5.5 C 78 % -8.72 C
1585 15-02-2009 05:02:59 -5.6 C 78 % -8.82 C
1586 15-02-2009 05:14:59 -5.4 C 78 % -8.62 C
1587 15-02-2009 05:26:59 -5.5 C 79 % -8.56 C
1588 15-02-2009 05:38:58 -5.6 C 78 % -8.82 C
1589 15-02-2009 05:50:58 -5.7 C 78 % -8.91 C
1590 15-02-2009 06:02:59 -5.7 C 79 % -8.75 C
1591 15-02-2009 06:14:59 -5.8 C 79 % -8.85 C
1592 15-02-2009 06:26:59 -5.8 C 79 % -8.85 C
1593 15-02-2009 06:38:58 -6 C 79 % -9.04 C
1594 15-02-2009 06:50:59 -6 C 79 % -9.04 C
1595 15-02-2009 07:02:58 -6.1 C 79 % -9.14 C
1596 15-02-2009 07:14:58 -6.1 C 79 % -9.14 C
1597 15-02-2009 07:26:59 -6.2 C 79 % -9.24 C
1598 15-02-2009 07:38:57 -6.3 C 79 % -9.33 C
1599 15-02-2009 07:50:58 -6.3 C 79 % -9.33 C
1600 15-02-2009 08:02:57 -6.3 C 79 % -9.33 C
Sensor: Nr:Datum:Temp:Feuchte:Taupunkt:
Aussen-T/F 1601 15-02-2009 08:14:57 -6.2 C 79 % -9.24 C
1602 15-02-2009 08:26:57 -6 C 79 % -9.04 C
1603 15-02-2009 08:38:58 -5.9 C 79 % -8.95 C
1604 15-02-2009 08:50:57 -5.6 C 79 % -8.65 C
1605 15-02-2009 09:02:57 -5.3 C 79 % -8.36 C
1606 15-02-2009 09:14:57 -5 C 79 % -8.07 C
1607 15-02-2009 09:26:57 -4.8 C 78 % -8.04 C
1608 15-02-2009 09:38:57 -4.6 C 77 % -8.01 C
1609 15-02-2009 09:50:56 -4.4 C 76 % -7.98 C
1610 15-02-2009 10:02:57 -4.2 C 75 % -7.96 C
1611 15-02-2009 10:14:56 -3.9 C 75 % -7.67 C
1612 15-02-2009 10:26:56 -3.5 C 73 % -7.63 C
1613 15-02-2009 10:38:56 -3.1 C 71 % -7.6 C
1614 15-02-2009 10:50:55 -2.9 C 70 % -7.59 C
1615 15-02-2009 11:02:56 -2.5 C 69 % -7.4 C
1616 15-02-2009 11:14:56 -2 C 67 % -7.3 C
1617 15-02-2009 11:26:56 -1.6 C 65 % -7.31 C
1618 15-02-2009 11:38:55 -1.2 C 64 % -7.13 C
1619 15-02-2009 11:50:56 -0.9 C 63 % -7.05 C
1620 15-02-2009 12:02:55 -0.4 C 62 % -6.78 C
1621 15-02-2009 12:14:55 -0.1 C 60 % -6.92 C
1622 15-02-2009 12:26:55 0.3 C 59 % -6.75 C
1623 15-02-2009 12:38:55 0.8 C 59 % -6.28 C
1624 15-02-2009 12:50:55 1 C 55 % -7.01 C
1625 15-02-2009 13:02:55 1.5 C 52 % -7.27 C
Sensor: Nr:Datum:Temp:Feuchte:Taupunkt:
Aussen-T/F 1626 15-02-2009 13:14:54 1.8 C 49 % -7.75 C
1627 15-02-2009 13:26:54 1.8 C 47 % -8.29 C
1628 15-02-2009 13:38:55 2 C 46 % -8.38 C
1629 15-02-2009 13:50:54 1.8 C 46 % -8.56 C
1630 15-02-2009 14:02:54 2 C 45 % -8.66 C
1631 15-02-2009 14:14:54 2.1 C 45 % -8.57 C
1632 15-02-2009 14:26:54 2.1 C 45 % -8.57 C
1633 15-02-2009 14:38:54 2.2 C 45 % -8.48 C
1634 15-02-2009 14:50:53 2.2 C 45 % -8.48 C
1635 15-02-2009 15:02:54 2.3 C 44 % -8.67 C
1636 15-02-2009 15:14:53 2.4 C 44 % -8.58 C
1637 15-02-2009 15:26:53 2.4 C 45 % -8.3 C
1638 15-02-2009 15:38:54 2.5 C 45 % -8.2 C
1639 15-02-2009 15:50:53 2.4 C 45 % -8.3 C
1640 15-02-2009 16:02:53 2.4 C 45 % -8.3 C
1641 15-02-2009 16:14:53 2.3 C 45 % -8.39 C
1642 15-02-2009 16:26:54 2.2 C 46 % -8.2 C
1643 15-02-2009 16:38:52 2.1 C 47 % -8.01 C
1644 15-02-2009 16:50:53 2 C 48 % -7.83 C
1645 15-02-2009 17:02:52 1.8 C 50 % -7.49 C
1646 15-02-2009 17:14:52 1.6 C 50 % -7.68 C
1647 15-02-2009 17:26:52 1.6 C 50 % -7.68 C
1648 15-02-2009 17:38:52 1.4 C 50 % -7.86 C
1649 15-02-2009 17:50:52 1.2 C 51 % -7.79 C
1650 15-02-2009 18:02:52 1.2 C 51 % -7.79 C
Sensor: Nr:Datum:Temp:Feuchte:Taupunkt:
Aussen-T/F 1651 15-02-2009 18:14:51 1.1 C 51 % -7.89 C
1652 15-02-2009 18:26:51 0.9 C 53 % -7.58 C
1653 15-02-2009 18:38:52 0.7 C 54 % -7.52 C
1654 15-02-2009 18:50:51 0.7 C 54 % -7.52 C
1655 15-02-2009 19:02:51 0.7 C 53 % -7.76 C
1656 15-02-2009 19:14:51 0.8 C 54 % -7.43 C
1657 15-02-2009 19:26:51 1 C 52 % -7.73 C
1658 15-02-2009 19:38:51 1.1 C 51 % -7.89 C
1659 15-02-2009 19:50:50 1.2 C 51 % -7.79 C
1660 15-02-2009 20:02:51 1.3 C 50 % -7.96 C
1661 15-02-2009 20:14:51 1.4 C 50 % -7.86 C
1662 15-02-2009 20:26:51 1.4 C 50 % -7.86 C
1663 15-02-2009 20:38:50 1.4 C 50 % -7.86 C
1664 15-02-2009 20:50:51 1.4 C 51 % -7.61 C
1665 15-02-2009 21:02:50 1.3 C 54 % -6.96 C
1666 15-02-2009 21:14:50 1.2 C 57 % -6.36 C
1667 15-02-2009 21:26:50 1 C 60 % -5.87 C
1668 15-02-2009 21:38:49 0.8 C 64 % -5.22 C
1669 15-02-2009 21:50:00 0.8 C 65 % -5.01 C
1670 15-02-2009 22:03:51 0.6 C 68 % -4.61 C
1671 15-02-2009 22:15:51 0.5 C 70 % -4.32 C
1672 15-02-2009 22:27:51 0.5 C 72 % -3.95 C
1673 15-02-2009 22:39:51 0.5 C 72 % -3.95 C
1674 15-02-2009 22:51:51 0.4 C 73 % -3.86 C
1675 15-02-2009 23:03:51 0.4 C 75 % -3.5 C
Sensor: Nr:Datum:Temp:Feuchte:Taupunkt:
Aussen-T/F 1676 15-02-2009 23:15:51 0.3 C 76 % -3.42 C
1677 15-02-2009 23:27:51 0.3 C 77 % -3.25 C
1678 15-02-2009 23:39:51 0.2 C 78 % -3.17 C
1679 15-02-2009 23:51:51 0.2 C 78 % -3.17 C

Legende:
   Min
   Max


Maximal/Minimal-Werte vom 02.02.2009 - 15.02.2009

Sensor Min Max Avg
Temp
(Aussen-T/F)
-6.3 °C
15-02-2009  07:38:57
10.6 °C
05-02-2009  14:28:45
2.03 °C
Feuchte
(Aussen-T/F)
30 %
11-02-2009  14:58:28
95 %
10-02-2009  02:57:41
71.51 %
Taupunkt
(Aussen-T/F)
-10.58 C
11-02-2009  14:58:28
5.66 C
10-02-2009  06:09:41
-2.85 C

Die Daten stammen von einer Davis Vantage Pro 2 Wetter-Station und werden unter Linux mit der Software wview2wettercgi und aufbereitet. Alle Angaben erfolgen ohne Gewähr für ihre Vollständigkeit oder Richtigkeit.
Kontakt: Rainer Krienke krienke@uni-koblenz.de . Meine Webseiten an der Uni Koblenz oder privat.
Version: $Revision: 0.78 $